<?xml version="1.0" encoding="UTF-8" standalone="no" ?>
<gpx xmlns="http://www.topografix.com/GPX/1/1" xmlns:xsi="http://www.w3.org/2001/XMLSchema-instance" xsi:schemaLocation="http://www.topografix.com/GPX/1/1 http://www.topografix.com/GPX/1/1/gpx.xsd" version="1.1" creator="VisuGPX - https://www.visugpx.com">
  <metadata>
    <name>64 - VTT - Monein - Mon circuit &amp;quot;LE CLASSIQUE&amp;quot;</name>
    <desc><![CDATA[Pluie et arrêts deux appels tph.]]></desc>
  </metadata>
  <trk>
    <name><![CDATA[ACTIVE LOG 007]]></name>
    <trkseg>
      <trkpt lat="43.31579" lon="-0.58658">
        <ele>205.378784</ele>
        <time>2013-09-20T09:29:37Z</time>
      </trkpt>
      <trkpt lat="43.31579" lon="-0.58658">
        <ele>205.378784</ele>
        <time>2013-09-20T09:29:38Z</time>
      </trkpt>
      <trkpt lat="43.31579" lon="-0.58658">
        <ele>205.378784</ele>
        <time>2013-09-20T09:29:39Z</time>
      </trkpt>
      <trkpt lat="43.31573" lon="-0.58655">
        <ele>205.378784</ele>
        <time>2013-09-20T09:30:00Z</time>
      </trkpt>
      <trkpt lat="43.31576" lon="-0.58654">
        <ele>205.378784</ele>
        <time>2013-09-20T09:30:33Z</time>
      </trkpt>
      <trkpt lat="43.31577" lon="-0.5865">
        <ele>206.340088</ele>
        <time>2013-09-20T09:30:52Z</time>
      </trkpt>
      <trkpt lat="43.31583" lon="-0.58636">
        <ele>205.378784</ele>
        <time>2013-09-20T09:30:58Z</time>
      </trkpt>
      <trkpt lat="43.31588" lon="-0.58606">
        <ele>203.93689</ele>
        <time>2013-09-20T09:31:02Z</time>
      </trkpt>
      <trkpt lat="43.31584" lon="-0.58539">
        <ele>200.572266</ele>
        <time>2013-09-20T09:31:12Z</time>
      </trkpt>
      <trkpt lat="43.31611" lon="-0.58527">
        <ele>196.726929</ele>
        <time>2013-09-20T09:31:17Z</time>
      </trkpt>
      <trkpt lat="43.31631" lon="-0.58523">
        <ele>195.284912</ele>
        <time>2013-09-20T09:31:19Z</time>
      </trkpt>
      <trkpt lat="43.31652" lon="-0.5852">
        <ele>190.958984</ele>
        <time>2013-09-20T09:31:21Z</time>
      </trkpt>
      <trkpt lat="43.31674" lon="-0.58518">
        <ele>185.671753</ele>
        <time>2013-09-20T09:31:23Z</time>
      </trkpt>
      <trkpt lat="43.31695" lon="-0.58515">
        <ele>181.826416</ele>
        <time>2013-09-20T09:31:25Z</time>
      </trkpt>
      <trkpt lat="43.3173" lon="-0.58493">
        <ele>177.02002</ele>
        <time>2013-09-20T09:31:29Z</time>
      </trkpt>
      <trkpt lat="43.31746" lon="-0.58474">
        <ele>176.058594</ele>
        <time>2013-09-20T09:31:31Z</time>
      </trkpt>
      <trkpt lat="43.31764" lon="-0.58457">
        <ele>174.616577</ele>
        <time>2013-09-20T09:31:33Z</time>
      </trkpt>
      <trkpt lat="43.31773" lon="-0.58448">
        <ele>173.174683</ele>
        <time>2013-09-20T09:31:34Z</time>
      </trkpt>
      <trkpt lat="43.31788" lon="-0.58428">
        <ele>171.732666</ele>
        <time>2013-09-20T09:31:36Z</time>
      </trkpt>
      <trkpt lat="43.31825" lon="-0.58371">
        <ele>173.174683</ele>
        <time>2013-09-20T09:31:44Z</time>
      </trkpt>
      <trkpt lat="43.3184" lon="-0.58339">
        <ele>177.02002</ele>
        <time>2013-09-20T09:31:53Z</time>
      </trkpt>
      <trkpt lat="43.3185" lon="-0.58277">
        <ele>177.981201</ele>
        <time>2013-09-20T09:32:07Z</time>
      </trkpt>
      <trkpt lat="43.3188" lon="-0.58225">
        <ele>179.903809</ele>
        <time>2013-09-20T09:32:20Z</time>
      </trkpt>
      <trkpt lat="43.31886" lon="-0.58216">
        <ele>178.942627</ele>
        <time>2013-09-20T09:32:22Z</time>
      </trkpt>
      <trkpt lat="43.31916" lon="-0.58151">
        <ele>176.539307</ele>
        <time>2013-09-20T09:32:31Z</time>
      </trkpt>
      <trkpt lat="43.31941" lon="-0.58125">
        <ele>171.732666</ele>
        <time>2013-09-20T09:32:35Z</time>
      </trkpt>
      <trkpt lat="43.3196" lon="-0.58109">
        <ele>168.848755</ele>
        <time>2013-09-20T09:32:39Z</time>
      </trkpt>
      <trkpt lat="43.31975" lon="-0.58129">
        <ele>167.887329</ele>
        <time>2013-09-20T09:32:43Z</time>
      </trkpt>
      <trkpt lat="43.31988" lon="-0.58152">
        <ele>168.848755</ele>
        <time>2013-09-20T09:32:48Z</time>
      </trkpt>
      <trkpt lat="43.32019" lon="-0.58177">
        <ele>168.368042</ele>
        <time>2013-09-20T09:32:55Z</time>
      </trkpt>
      <trkpt lat="43.32075" lon="-0.58196">
        <ele>169.329468</ele>
        <time>2013-09-20T09:33:07Z</time>
      </trkpt>
      <trkpt lat="43.32094" lon="-0.58203">
        <ele>170.771362</ele>
        <time>2013-09-20T09:33:11Z</time>
      </trkpt>
      <trkpt lat="43.32123" lon="-0.5822">
        <ele>169.810059</ele>
        <time>2013-09-20T09:33:20Z</time>
      </trkpt>
      <trkpt lat="43.32141" lon="-0.58213">
        <ele>169.329468</ele>
        <time>2013-09-20T09:33:25Z</time>
      </trkpt>
      <trkpt lat="43.32164" lon="-0.58183">
        <ele>167.406738</ele>
        <time>2013-09-20T09:33:30Z</time>
      </trkpt>
      <trkpt lat="43.32184" lon="-0.58166">
        <ele>165.964722</ele>
        <time>2013-09-20T09:33:33Z</time>
      </trkpt>
      <trkpt lat="43.32197" lon="-0.58152">
        <ele>165.484131</ele>
        <time>2013-09-20T09:33:35Z</time>
      </trkpt>
      <trkpt lat="43.32207" lon="-0.58134">
        <ele>164.042114</ele>
        <time>2013-09-20T09:33:37Z</time>
      </trkpt>
      <trkpt lat="43.32216" lon="-0.58114">
        <ele>164.042114</ele>
        <time>2013-09-20T09:33:39Z</time>
      </trkpt>
      <trkpt lat="43.32223" lon="-0.58092">
        <ele>163.080811</ele>
        <time>2013-09-20T09:33:41Z</time>
      </trkpt>
      <trkpt lat="43.32226" lon="-0.58071">
        <ele>160.67749</ele>
        <time>2013-09-20T09:33:43Z</time>
      </trkpt>
      <trkpt lat="43.32226" lon="-0.5805">
        <ele>160.196899</ele>
        <time>2013-09-20T09:33:45Z</time>
      </trkpt>
      <trkpt lat="43.32223" lon="-0.58029">
        <ele>159.235474</ele>
        <time>2013-09-20T09:33:47Z</time>
      </trkpt>
      <trkpt lat="43.32218" lon="-0.57996">
        <ele>157.312866</ele>
        <time>2013-09-20T09:33:51Z</time>
      </trkpt>
      <trkpt lat="43.32216" lon="-0.57955">
        <ele>155.390259</ele>
        <time>2013-09-20T09:33:59Z</time>
      </trkpt>
      <trkpt lat="43.32214" lon="-0.57915">
        <ele>154.909546</ele>
        <time>2013-09-20T09:34:06Z</time>
      </trkpt>
      <trkpt lat="43.32244" lon="-0.57897">
        <ele>153.948364</ele>
        <time>2013-09-20T09:34:12Z</time>
      </trkpt>
      <trkpt lat="43.3226" lon="-0.57894">
        <ele>152.025757</ele>
        <time>2013-09-20T09:34:15Z</time>
      </trkpt>
      <trkpt lat="43.32265" lon="-0.57885">
        <ele>151.544922</ele>
        <time>2013-09-20T09:34:17Z</time>
      </trkpt>
      <trkpt lat="43.32264" lon="-0.57873">
        <ele>150.583618</ele>
        <time>2013-09-20T09:34:23Z</time>
      </trkpt>
      <trkpt lat="43.32269" lon="-0.57871">
        <ele>151.544922</ele>
        <time>2013-09-20T09:34:27Z</time>
      </trkpt>
      <trkpt lat="43.32323" lon="-0.57885">
        <ele>150.583618</ele>
        <time>2013-09-20T09:34:38Z</time>
      </trkpt>
      <trkpt lat="43.32442" lon="-0.57903">
        <ele>149.141602</ele>
        <time>2013-09-20T09:34:57Z</time>
      </trkpt>
      <trkpt lat="43.32499" lon="-0.57915">
        <ele>149.622314</ele>
        <time>2013-09-20T09:35:07Z</time>
      </trkpt>
      <trkpt lat="43.32557" lon="-0.57901">
        <ele>148.18042</ele>
        <time>2013-09-20T09:35:17Z</time>
      </trkpt>
      <trkpt lat="43.32579" lon="-0.57908">
        <ele>148.18042</ele>
        <time>2013-09-20T09:35:21Z</time>
      </trkpt>
      <trkpt lat="43.32588" lon="-0.57916">
        <ele>148.18042</ele>
        <time>2013-09-20T09:35:23Z</time>
      </trkpt>
      <trkpt lat="43.32585" lon="-0.57951">
        <ele>147.699707</ele>
        <time>2013-09-20T09:35:29Z</time>
      </trkpt>
      <trkpt lat="43.32579" lon="-0.57953">
        <ele>147.699707</ele>
        <time>2013-09-20T09:35:30Z</time>
      </trkpt>
      <trkpt lat="43.3248" lon="-0.57978">
        <ele>150.103027</ele>
        <time>2013-09-20T09:35:50Z</time>
      </trkpt>
      <trkpt lat="43.32482" lon="-0.57993">
        <ele>151.544922</ele>
        <time>2013-09-20T09:35:55Z</time>
      </trkpt>
      <trkpt lat="43.32521" lon="-0.58019">
        <ele>152.986938</ele>
        <time>2013-09-20T09:36:05Z</time>
      </trkpt>
      <trkpt lat="43.32534" lon="-0.58056">
        <ele>152.986938</ele>
        <time>2013-09-20T09:36:12Z</time>
      </trkpt>
      <trkpt lat="43.32532" lon="-0.58067">
        <ele>153.467651</ele>
        <time>2013-09-20T09:36:14Z</time>
      </trkpt>
      <trkpt lat="43.32547" lon="-0.58093">
        <ele>152.986938</ele>
        <time>2013-09-20T09:36:20Z</time>
      </trkpt>
      <trkpt lat="43.32567" lon="-0.58105">
        <ele>152.986938</ele>
        <time>2013-09-20T09:36:24Z</time>
      </trkpt>
      <trkpt lat="43.32594" lon="-0.58114">
        <ele>152.506348</ele>
        <time>2013-09-20T09:36:29Z</time>
      </trkpt>
      <trkpt lat="43.32613" lon="-0.58124">
        <ele>152.506348</ele>
        <time>2013-09-20T09:36:33Z</time>
      </trkpt>
      <trkpt lat="43.32627" lon="-0.58145">
        <ele>153.467651</ele>
        <time>2013-09-20T09:36:37Z</time>
      </trkpt>
      <trkpt lat="43.32645" lon="-0.58193">
        <ele>156.832153</ele>
        <time>2013-09-20T09:36:49Z</time>
      </trkpt>
      <trkpt lat="43.32674" lon="-0.58219">
        <ele>159.235474</ele>
        <time>2013-09-20T09:37:01Z</time>
      </trkpt>
      <trkpt lat="43.32682" lon="-0.58226">
        <ele>160.67749</ele>
        <time>2013-09-20T09:37:04Z</time>
      </trkpt>
      <trkpt lat="43.32731" lon="-0.58269">
        <ele>161.158203</ele>
        <time>2013-09-20T09:37:19Z</time>
      </trkpt>
      <trkpt lat="43.32783" lon="-0.58299">
        <ele>162.600098</ele>
        <time>2013-09-20T09:37:33Z</time>
      </trkpt>
      <trkpt lat="43.32845" lon="-0.58313">
        <ele>164.522705</ele>
        <time>2013-09-20T09:37:49Z</time>
      </trkpt>
      <trkpt lat="43.32889" lon="-0.58336">
        <ele>164.042114</ele>
        <time>2013-09-20T09:38:02Z</time>
      </trkpt>
      <trkpt lat="43.32919" lon="-0.58365">
        <ele>161.638916</ele>
        <time>2013-09-20T09:38:09Z</time>
      </trkpt>
      <trkpt lat="43.32943" lon="-0.58378">
        <ele>160.67749</ele>
        <time>2013-09-20T09:38:13Z</time>
      </trkpt>
      <trkpt lat="43.32979" lon="-0.58385">
        <ele>158.754761</ele>
        <time>2013-09-20T09:38:18Z</time>
      </trkpt>
      <trkpt lat="43.3299" lon="-0.5839">
        <ele>158.27417</ele>
        <time>2013-09-20T09:38:20Z</time>
      </trkpt>
      <trkpt lat="43.33038" lon="-0.58414">
        <ele>154.428955</ele>
        <time>2013-09-20T09:38:32Z</time>
      </trkpt>
      <trkpt lat="43.33053" lon="-0.58421">
        <ele>153.948364</ele>
        <time>2013-09-20T09:38:37Z</time>
      </trkpt>
      <trkpt lat="43.3309" lon="-0.58439">
        <ele>155.390259</ele>
        <time>2013-09-20T09:38:46Z</time>
      </trkpt>
      <trkpt lat="43.33113" lon="-0.58451">
        <ele>155.390259</ele>
        <time>2013-09-20T09:38:52Z</time>
      </trkpt>
      <trkpt lat="43.33131" lon="-0.58453">
        <ele>154.909546</ele>
        <time>2013-09-20T09:38:56Z</time>
      </trkpt>
      <trkpt lat="43.3314" lon="-0.58452">
        <ele>154.909546</ele>
        <time>2013-09-20T09:38:58Z</time>
      </trkpt>
      <trkpt lat="43.33166" lon="-0.58464">
        <ele>153.948364</ele>
        <time>2013-09-20T09:39:04Z</time>
      </trkpt>
      <trkpt lat="43.33192" lon="-0.58492">
        <ele>150.583618</ele>
        <time>2013-09-20T09:39:10Z</time>
      </trkpt>
      <trkpt lat="43.33214" lon="-0.58524">
        <ele>147.699707</ele>
        <time>2013-09-20T09:39:14Z</time>
      </trkpt>
      <trkpt lat="43.33257" lon="-0.58563">
        <ele>149.622314</ele>
        <time>2013-09-20T09:39:22Z</time>
      </trkpt>
      <trkpt lat="43.33283" lon="-0.58592">
        <ele>152.506348</ele>
        <time>2013-09-20T09:39:34Z</time>
      </trkpt>
      <trkpt lat="43.3332" lon="-0.58615">
        <ele>154.909546</ele>
        <time>2013-09-20T09:39:48Z</time>
      </trkpt>
      <trkpt lat="43.33362" lon="-0.58652">
        <ele>155.870972</ele>
        <time>2013-09-20T09:40:02Z</time>
      </trkpt>
      <trkpt lat="43.33427" lon="-0.58715">
        <ele>158.27417</ele>
        <time>2013-09-20T09:40:22Z</time>
      </trkpt>
      <trkpt lat="43.33488" lon="-0.58777">
        <ele>158.27417</ele>
        <time>2013-09-20T09:40:39Z</time>
      </trkpt>
      <trkpt lat="43.33521" lon="-0.5881">
        <ele>161.638916</ele>
        <time>2013-09-20T09:40:51Z</time>
      </trkpt>
      <trkpt lat="43.33543" lon="-0.58828">
        <ele>163.561523</ele>
        <time>2013-09-20T09:41:00Z</time>
      </trkpt>
      <trkpt lat="43.33568" lon="-0.58854">
        <ele>166.445313</ele>
        <time>2013-09-20T09:41:11Z</time>
      </trkpt>
      <trkpt lat="43.3361" lon="-0.58896">
        <ele>166.445313</ele>
        <time>2013-09-20T09:41:27Z</time>
      </trkpt>
      <trkpt lat="43.33624" lon="-0.58908">
        <ele>164.522705</ele>
        <time>2013-09-20T09:41:32Z</time>
      </trkpt>
      <trkpt lat="43.33626" lon="-0.5891">
        <ele>163.561523</ele>
        <time>2013-09-20T09:41:45Z</time>
      </trkpt>
      <trkpt lat="43.33634" lon="-0.58912">
        <ele>163.561523</ele>
        <time>2013-09-20T09:42:31Z</time>
      </trkpt>
      <trkpt lat="43.33655" lon="-0.58914">
        <ele>162.119507</ele>
        <time>2013-09-20T09:42:35Z</time>
      </trkpt>
      <trkpt lat="43.33682" lon="-0.58926">
        <ele>160.196899</ele>
        <time>2013-09-20T09:42:39Z</time>
      </trkpt>
      <trkpt lat="43.33697" lon="-0.58934">
        <ele>158.27417</ele>
        <time>2013-09-20T09:42:41Z</time>
      </trkpt>
      <trkpt lat="43.33735" lon="-0.58958">
        <ele>154.909546</ele>
        <time>2013-09-20T09:42:46Z</time>
      </trkpt>
      <trkpt lat="43.33752" lon="-0.58967">
        <ele>151.544922</ele>
        <time>2013-09-20T09:42:49Z</time>
      </trkpt>
      <trkpt lat="43.33757" lon="-0.58969">
        <ele>151.064209</ele>
        <time>2013-09-20T09:42:50Z</time>
      </trkpt>
      <trkpt lat="43.33767" lon="-0.58973">
        <ele>150.103027</ele>
        <time>2013-09-20T09:42:52Z</time>
      </trkpt>
      <trkpt lat="43.33806" lon="-0.58948">
        <ele>147.699707</ele>
        <time>2013-09-20T09:42:59Z</time>
      </trkpt>
      <trkpt lat="43.33829" lon="-0.58904">
        <ele>146.257813</ele>
        <time>2013-09-20T09:43:08Z</time>
      </trkpt>
      <trkpt lat="43.33832" lon="-0.58903">
        <ele>145.7771</ele>
        <time>2013-09-20T09:43:09Z</time>
      </trkpt>
      <trkpt lat="43.33838" lon="-0.58904">
        <ele>146.257813</ele>
        <time>2013-09-20T09:43:11Z</time>
      </trkpt>
      <trkpt lat="43.33889" lon="-0.58961">
        <ele>144.815796</ele>
        <time>2013-09-20T09:43:23Z</time>
      </trkpt>
      <trkpt lat="43.33918" lon="-0.58994">
        <ele>146.257813</ele>
        <time>2013-09-20T09:43:30Z</time>
      </trkpt>
      <trkpt lat="43.3399" lon="-0.59044">
        <ele>146.738403</ele>
        <time>2013-09-20T09:43:46Z</time>
      </trkpt>
      <trkpt lat="43.34074" lon="-0.59055">
        <ele>147.699707</ele>
        <time>2013-09-20T09:44:02Z</time>
      </trkpt>
      <trkpt lat="43.34191" lon="-0.59064">
        <ele>146.738403</ele>
        <time>2013-09-20T09:44:23Z</time>
      </trkpt>
      <trkpt lat="43.34289" lon="-0.59075">
        <ele>145.7771</ele>
        <time>2013-09-20T09:44:40Z</time>
      </trkpt>
      <trkpt lat="43.34365" lon="-0.59113">
        <ele>145.296387</ele>
        <time>2013-09-20T09:44:55Z</time>
      </trkpt>
      <trkpt lat="43.34398" lon="-0.59142">
        <ele>145.7771</ele>
        <time>2013-09-20T09:45:02Z</time>
      </trkpt>
      <trkpt lat="43.34435" lon="-0.59149">
        <ele>145.296387</ele>
        <time>2013-09-20T09:45:09Z</time>
      </trkpt>
      <trkpt lat="43.34461" lon="-0.59172">
        <ele>144.815796</ele>
        <time>2013-09-20T09:45:19Z</time>
      </trkpt>
      <trkpt lat="43.3446" lon="-0.59175">
        <ele>144.335205</ele>
        <time>2013-09-20T09:45:32Z</time>
      </trkpt>
      <trkpt lat="43.34469" lon="-0.59182">
        <ele>145.296387</ele>
        <time>2013-09-20T09:45:43Z</time>
      </trkpt>
      <trkpt lat="43.34471" lon="-0.59184">
        <ele>145.296387</ele>
        <time>2013-09-20T09:45:44Z</time>
      </trkpt>
      <trkpt lat="43.34525" lon="-0.59224">
        <ele>145.7771</ele>
        <time>2013-09-20T09:45:59Z</time>
      </trkpt>
      <trkpt lat="43.34607" lon="-0.59287">
        <ele>148.18042</ele>
        <time>2013-09-20T09:46:20Z</time>
      </trkpt>
      <trkpt lat="43.34683" lon="-0.59364">
        <ele>147.699707</ele>
        <time>2013-09-20T09:46:39Z</time>
      </trkpt>
      <trkpt lat="43.3469" lon="-0.59373">
        <ele>147.218994</ele>
        <time>2013-09-20T09:46:41Z</time>
      </trkpt>
      <trkpt lat="43.34706" lon="-0.59378">
        <ele>145.296387</ele>
        <time>2013-09-20T09:46:45Z</time>
      </trkpt>
      <trkpt lat="43.34712" lon="-0.59368">
        <ele>144.335205</ele>
        <time>2013-09-20T09:46:47Z</time>
      </trkpt>
      <trkpt lat="43.34713" lon="-0.59361">
        <ele>143.85437</ele>
        <time>2013-09-20T09:46:48Z</time>
      </trkpt>
      <trkpt lat="43.34719" lon="-0.59316">
        <ele>143.373657</ele>
        <time>2013-09-20T09:46:54Z</time>
      </trkpt>
      <trkpt lat="43.34739" lon="-0.59288">
        <ele>142.412476</ele>
        <time>2013-09-20T09:46:59Z</time>
      </trkpt>
      <trkpt lat="43.34772" lon="-0.59267">
        <ele>140.009155</ele>
        <time>2013-09-20T09:47:05Z</time>
      </trkpt>
      <trkpt lat="43.34784" lon="-0.59242">
        <ele>139.528442</ele>
        <time>2013-09-20T09:47:09Z</time>
      </trkpt>
      <trkpt lat="43.34789" lon="-0.59221">
        <ele>138.567261</ele>
        <time>2013-09-20T09:47:12Z</time>
      </trkpt>
      <trkpt lat="43.34814" lon="-0.5921">
        <ele>137.605835</ele>
        <time>2013-09-20T09:47:18Z</time>
      </trkpt>
      <trkpt lat="43.34889" lon="-0.59241">
        <ele>137.605835</ele>
        <time>2013-09-20T09:47:33Z</time>
      </trkpt>
      <trkpt lat="43.34982" lon="-0.59285">
        <ele>136.644653</ele>
        <time>2013-09-20T09:47:52Z</time>
      </trkpt>
      <trkpt lat="43.35086" lon="-0.59333">
        <ele>137.605835</ele>
        <time>2013-09-20T09:48:13Z</time>
      </trkpt>
      <trkpt lat="43.351" lon="-0.59341">
        <ele>137.605835</ele>
        <time>2013-09-20T09:48:16Z</time>
      </trkpt>
      <trkpt lat="43.3512" lon="-0.59347">
        <ele>137.605835</ele>
        <time>2013-09-20T09:48:20Z</time>
      </trkpt>
      <trkpt lat="43.35212" lon="-0.59344">
        <ele>135.683105</ele>
        <time>2013-09-20T09:48:38Z</time>
      </trkpt>
      <trkpt lat="43.35231" lon="-0.59329">
        <ele>135.683105</ele>
        <time>2013-09-20T09:48:42Z</time>
      </trkpt>
      <trkpt lat="43.3526" lon="-0.59321">
        <ele>134.721924</ele>
        <time>2013-09-20T09:48:48Z</time>
      </trkpt>
      <trkpt lat="43.35304" lon="-0.59354">
        <ele>135.683105</ele>
        <time>2013-09-20T09:48:59Z</time>
      </trkpt>
      <trkpt lat="43.35326" lon="-0.59361">
        <ele>135.202515</ele>
        <time>2013-09-20T09:49:04Z</time>
      </trkpt>
      <trkpt lat="43.35345" lon="-0.59364">
        <ele>134.721924</ele>
        <time>2013-09-20T09:49:08Z</time>
      </trkpt>
      <trkpt lat="43.35386" lon="-0.59373">
        <ele>131.837891</ele>
        <time>2013-09-20T09:49:16Z</time>
      </trkpt>
      <trkpt lat="43.35399" lon="-0.59384">
        <ele>129.915283</ele>
        <time>2013-09-20T09:49:19Z</time>
      </trkpt>
      <trkpt lat="43.35403" lon="-0.59389">
        <ele>129.915283</ele>
        <time>2013-09-20T09:49:20Z</time>
      </trkpt>
      <trkpt lat="43.35412" lon="-0.59405">
        <ele>128.473389</ele>
        <time>2013-09-20T09:49:23Z</time>
      </trkpt>
      <trkpt lat="43.35426" lon="-0.59433">
        <ele>125.589355</ele>
        <time>2013-09-20T09:49:27Z</time>
      </trkpt>
      <trkpt lat="43.3545" lon="-0.5947">
        <ele>121.744141</ele>
        <time>2013-09-20T09:49:32Z</time>
      </trkpt>
      <trkpt lat="43.35465" lon="-0.59485">
        <ele>119.821411</ele>
        <time>2013-09-20T09:49:35Z</time>
      </trkpt>
      <trkpt lat="43.35498" lon="-0.5948">
        <ele>119.34082</ele>
        <time>2013-09-20T09:49:42Z</time>
      </trkpt>
      <trkpt lat="43.3552" lon="-0.59477">
        <ele>118.860107</ele>
        <time>2013-09-20T09:49:46Z</time>
      </trkpt>
      <trkpt lat="43.35552" lon="-0.59459">
        <ele>118.860107</ele>
        <time>2013-09-20T09:49:52Z</time>
      </trkpt>
      <trkpt lat="43.35601" lon="-0.59379">
        <ele>118.379395</ele>
        <time>2013-09-20T09:50:05Z</time>
      </trkpt>
      <trkpt lat="43.35656" lon="-0.59332">
        <ele>118.379395</ele>
        <time>2013-09-20T09:50:18Z</time>
      </trkpt>
      <trkpt lat="43.35673" lon="-0.59313">
        <ele>118.379395</ele>
        <time>2013-09-20T09:50:22Z</time>
      </trkpt>
      <trkpt lat="43.35745" lon="-0.59242">
        <ele>119.34082</ele>
        <time>2013-09-20T09:50:39Z</time>
      </trkpt>
      <trkpt lat="43.35766" lon="-0.59231">
        <ele>118.860107</ele>
        <time>2013-09-20T09:50:43Z</time>
      </trkpt>
      <trkpt lat="43.3578" lon="-0.59221">
        <ele>119.34082</ele>
        <time>2013-09-20T09:50:46Z</time>
      </trkpt>
      <trkpt lat="43.3581" lon="-0.59209">
        <ele>118.860107</ele>
        <time>2013-09-20T09:50:53Z</time>
      </trkpt>
      <trkpt lat="43.35815" lon="-0.5919">
        <ele>119.34082</ele>
        <time>2013-09-20T09:50:57Z</time>
      </trkpt>
      <trkpt lat="43.35806" lon="-0.59133">
        <ele>118.860107</ele>
        <time>2013-09-20T09:51:08Z</time>
      </trkpt>
      <trkpt lat="43.358" lon="-0.59126">
        <ele>119.34082</ele>
        <time>2013-09-20T09:51:10Z</time>
      </trkpt>
      <trkpt lat="43.35777" lon="-0.59114">
        <ele>118.379395</ele>
        <time>2013-09-20T09:51:16Z</time>
      </trkpt>
      <trkpt lat="43.35765" lon="-0.59098">
        <ele>118.860107</ele>
        <time>2013-09-20T09:51:20Z</time>
      </trkpt>
      <trkpt lat="43.35753" lon="-0.59048">
        <ele>119.34082</ele>
        <time>2013-09-20T09:51:30Z</time>
      </trkpt>
      <trkpt lat="43.3575" lon="-0.58973">
        <ele>120.302124</ele>
        <time>2013-09-20T09:51:42Z</time>
      </trkpt>
      <trkpt lat="43.35724" lon="-0.58932">
        <ele>119.821411</ele>
        <time>2013-09-20T09:51:53Z</time>
      </trkpt>
      <trkpt lat="43.35682" lon="-0.5891">
        <ele>120.302124</ele>
        <time>2013-09-20T09:52:04Z</time>
      </trkpt>
      <trkpt lat="43.35637" lon="-0.58884">
        <ele>120.782837</ele>
        <time>2013-09-20T09:52:16Z</time>
      </trkpt>
      <trkpt lat="43.35615" lon="-0.58875">
        <ele>121.26355</ele>
        <time>2013-09-20T09:52:22Z</time>
      </trkpt>
      <trkpt lat="43.35604" lon="-0.58854">
        <ele>120.782837</ele>
        <time>2013-09-20T09:52:27Z</time>
      </trkpt>
      <trkpt lat="43.35592" lon="-0.58805">
        <ele>120.302124</ele>
        <time>2013-09-20T09:52:38Z</time>
      </trkpt>
      <trkpt lat="43.35583" lon="-0.58788">
        <ele>121.26355</ele>
        <time>2013-09-20T09:52:42Z</time>
      </trkpt>
      <trkpt lat="43.35579" lon="-0.58765">
        <ele>121.744141</ele>
        <time>2013-09-20T09:52:46Z</time>
      </trkpt>
      <trkpt lat="43.35579" lon="-0.58745">
        <ele>121.26355</ele>
        <time>2013-09-20T09:52:50Z</time>
      </trkpt>
      <trkpt lat="43.35578" lon="-0.58733">
        <ele>121.744141</ele>
        <time>2013-09-20T09:52:52Z</time>
      </trkpt>
      <trkpt lat="43.35576" lon="-0.58694">
        <ele>120.782837</ele>
        <time>2013-09-20T09:52:58Z</time>
      </trkpt>
      <trkpt lat="43.35567" lon="-0.58639">
        <ele>122.224731</ele>
        <time>2013-09-20T09:53:09Z</time>
      </trkpt>
      <trkpt lat="43.35564" lon="-0.58627">
        <ele>122.705444</ele>
        <time>2013-09-20T09:53:11Z</time>
      </trkpt>
      <trkpt lat="43.35562" lon="-0.58597">
        <ele>121.744141</ele>
        <time>2013-09-20T09:53:16Z</time>
      </trkpt>
      <trkpt lat="43.35561" lon="-0.58559">
        <ele>122.224731</ele>
        <time>2013-09-20T09:53:23Z</time>
      </trkpt>
      <trkpt lat="43.35569" lon="-0.58533">
        <ele>122.705444</ele>
        <time>2013-09-20T09:53:28Z</time>
      </trkpt>
      <trkpt lat="43.35577" lon="-0.58511">
        <ele>121.744141</ele>
        <time>2013-09-20T09:53:32Z</time>
      </trkpt>
      <trkpt lat="43.3559" lon="-0.58493">
        <ele>122.224731</ele>
        <time>2013-09-20T09:53:36Z</time>
      </trkpt>
      <trkpt lat="43.35602" lon="-0.58461">
        <ele>122.224731</ele>
        <time>2013-09-20T09:53:42Z</time>
      </trkpt>
      <trkpt lat="43.35606" lon="-0.58444">
        <ele>122.224731</ele>
        <time>2013-09-20T09:53:45Z</time>
      </trkpt>
      <trkpt lat="43.35611" lon="-0.58404">
        <ele>121.744141</ele>
        <time>2013-09-20T09:53:52Z</time>
      </trkpt>
      <trkpt lat="43.35625" lon="-0.58325">
        <ele>121.26355</ele>
        <time>2013-09-20T09:54:06Z</time>
      </trkpt>
      <trkpt lat="43.35656" lon="-0.58304">
        <ele>121.26355</ele>
        <time>2013-09-20T09:54:17Z</time>
      </trkpt>
      <trkpt lat="43.35659" lon="-0.58302">
        <ele>122.224731</ele>
        <time>2013-09-20T09:54:18Z</time>
      </trkpt>
      <trkpt lat="43.3566" lon="-0.58278">
        <ele>122.705444</ele>
        <time>2013-09-20T09:54:28Z</time>
      </trkpt>
      <trkpt lat="43.35651" lon="-0.58207">
        <ele>123.186157</ele>
        <time>2013-09-20T09:54:40Z</time>
      </trkpt>
      <trkpt lat="43.35651" lon="-0.58192">
        <ele>122.705444</ele>
        <time>2013-09-20T09:54:42Z</time>
      </trkpt>
      <trkpt lat="43.35655" lon="-0.58164">
        <ele>122.705444</ele>
        <time>2013-09-20T09:54:46Z</time>
      </trkpt>
      <trkpt lat="43.35706" lon="-0.57979">
        <ele>123.666748</ele>
        <time>2013-09-20T09:55:12Z</time>
      </trkpt>
      <trkpt lat="43.35761" lon="-0.57782">
        <ele>123.666748</ele>
        <time>2013-09-20T09:55:38Z</time>
      </trkpt>
      <trkpt lat="43.35807" lon="-0.5762">
        <ele>123.666748</ele>
        <time>2013-09-20T09:56:00Z</time>
      </trkpt>
      <trkpt lat="43.35809" lon="-0.57614">
        <ele>124.147339</ele>
        <time>2013-09-20T09:56:01Z</time>
      </trkpt>
      <trkpt lat="43.35808" lon="-0.57592">
        <ele>122.705444</ele>
        <time>2013-09-20T09:56:04Z</time>
      </trkpt>
      <trkpt lat="43.35782" lon="-0.57477">
        <ele>122.705444</ele>
        <time>2013-09-20T09:56:19Z</time>
      </trkpt>
      <trkpt lat="43.35751" lon="-0.57368">
        <ele>122.705444</ele>
        <time>2013-09-20T09:56:35Z</time>
      </trkpt>
      <trkpt lat="43.35749" lon="-0.57354">
        <ele>123.186157</ele>
        <time>2013-09-20T09:56:37Z</time>
      </trkpt>
      <trkpt lat="43.35711" lon="-0.57245">
        <ele>123.666748</ele>
        <time>2013-09-20T09:56:54Z</time>
      </trkpt>
      <trkpt lat="43.35671" lon="-0.57113">
        <ele>123.666748</ele>
        <time>2013-09-20T09:57:14Z</time>
      </trkpt>
      <trkpt lat="43.35668" lon="-0.57011">
        <ele>123.186157</ele>
        <time>2013-09-20T09:57:28Z</time>
      </trkpt>
      <trkpt lat="43.3569" lon="-0.56876">
        <ele>124.147339</ele>
        <time>2013-09-20T09:57:47Z</time>
      </trkpt>
      <trkpt lat="43.35715" lon="-0.56756">
        <ele>124.147339</ele>
        <time>2013-09-20T09:58:05Z</time>
      </trkpt>
      <trkpt lat="43.357" lon="-0.56747">
        <ele>124.147339</ele>
        <time>2013-09-20T09:58:11Z</time>
      </trkpt>
      <trkpt lat="43.35695" lon="-0.5675">
        <ele>124.147339</ele>
        <time>2013-09-20T09:58:12Z</time>
      </trkpt>
      <trkpt lat="43.35604" lon="-0.56814">
        <ele>124.147339</ele>
        <time>2013-09-20T09:58:32Z</time>
      </trkpt>
      <trkpt lat="43.35528" lon="-0.56854">
        <ele>123.666748</ele>
        <time>2013-09-20T09:58:50Z</time>
      </trkpt>
      <trkpt lat="43.35525" lon="-0.56852">
        <ele>123.666748</ele>
        <time>2013-09-20T09:58:51Z</time>
      </trkpt>
      <trkpt lat="43.35522" lon="-0.56828">
        <ele>123.666748</ele>
        <time>2013-09-20T09:58:56Z</time>
      </trkpt>
      <trkpt lat="43.35512" lon="-0.56712">
        <ele>124.147339</ele>
        <time>2013-09-20T09:59:14Z</time>
      </trkpt>
      <trkpt lat="43.35507" lon="-0.56672">
        <ele>124.147339</ele>
        <time>2013-09-20T09:59:20Z</time>
      </trkpt>
      <trkpt lat="43.35499" lon="-0.56647">
        <ele>123.666748</ele>
        <time>2013-09-20T09:59:24Z</time>
      </trkpt>
      <trkpt lat="43.35491" lon="-0.56631">
        <ele>124.147339</ele>
        <time>2013-09-20T09:59:27Z</time>
      </trkpt>
      <trkpt lat="43.35473" lon="-0.56578">
        <ele>124.147339</ele>
        <time>2013-09-20T09:59:36Z</time>
      </trkpt>
      <trkpt lat="43.35471" lon="-0.56565">
        <ele>124.628052</ele>
        <time>2013-09-20T09:59:38Z</time>
      </trkpt>
      <trkpt lat="43.35457" lon="-0.56484">
        <ele>124.147339</ele>
        <time>2013-09-20T09:59:52Z</time>
      </trkpt>
      <trkpt lat="43.35385" lon="-0.56479">
        <ele>125.108765</ele>
        <time>2013-09-20T10:00:07Z</time>
      </trkpt>
      <trkpt lat="43.3527" lon="-0.56483">
        <ele>125.589355</ele>
        <time>2013-09-20T10:00:29Z</time>
      </trkpt>
      <trkpt lat="43.35168" lon="-0.56463">
        <ele>126.069946</ele>
        <time>2013-09-20T10:00:49Z</time>
      </trkpt>
      <trkpt lat="43.35134" lon="-0.56441">
        <ele>125.108765</ele>
        <time>2013-09-20T10:01:01Z</time>
      </trkpt>
      <trkpt lat="43.35136" lon="-0.56442">
        <ele>125.108765</ele>
        <time>2013-09-20T10:01:36Z</time>
      </trkpt>
      <trkpt lat="43.35135" lon="-0.56425">
        <ele>125.589355</ele>
        <time>2013-09-20T10:02:02Z</time>
      </trkpt>
      <trkpt lat="43.35119" lon="-0.56397">
        <ele>125.589355</ele>
        <time>2013-09-20T10:02:09Z</time>
      </trkpt>
      <trkpt lat="43.35119" lon="-0.56294">
        <ele>125.589355</ele>
        <time>2013-09-20T10:02:24Z</time>
      </trkpt>
      <trkpt lat="43.35121" lon="-0.56126">
        <ele>125.589355</ele>
        <time>2013-09-20T10:02:46Z</time>
      </trkpt>
      <trkpt lat="43.35092" lon="-0.56032">
        <ele>125.589355</ele>
        <time>2013-09-20T10:03:00Z</time>
      </trkpt>
      <trkpt lat="43.35081" lon="-0.56">
        <ele>125.108765</ele>
        <time>2013-09-20T10:03:05Z</time>
      </trkpt>
      <trkpt lat="43.3504" lon="-0.55881">
        <ele>125.589355</ele>
        <time>2013-09-20T10:03:23Z</time>
      </trkpt>
      <trkpt lat="43.34994" lon="-0.55741">
        <ele>126.069946</ele>
        <time>2013-09-20T10:03:45Z</time>
      </trkpt>
      <trkpt lat="43.34967" lon="-0.55665">
        <ele>125.589355</ele>
        <time>2013-09-20T10:03:57Z</time>
      </trkpt>
      <trkpt lat="43.34973" lon="-0.55629">
        <ele>125.589355</ele>
        <time>2013-09-20T10:04:03Z</time>
      </trkpt>
      <trkpt lat="43.34994" lon="-0.55597">
        <ele>126.069946</ele>
        <time>2013-09-20T10:04:09Z</time>
      </trkpt>
      <trkpt lat="43.35001" lon="-0.55555">
        <ele>125.108765</ele>
        <time>2013-09-20T10:04:15Z</time>
      </trkpt>
      <trkpt lat="43.34979" lon="-0.55473">
        <ele>126.069946</ele>
        <time>2013-09-20T10:04:27Z</time>
      </trkpt>
      <trkpt lat="43.34983" lon="-0.55439">
        <ele>126.069946</ele>
        <time>2013-09-20T10:04:32Z</time>
      </trkpt>
      <trkpt lat="43.35039" lon="-0.55298">
        <ele>126.550659</ele>
        <time>2013-09-20T10:04:54Z</time>
      </trkpt>
      <trkpt lat="43.35046" lon="-0.5528">
        <ele>127.031372</ele>
        <time>2013-09-20T10:04:57Z</time>
      </trkpt>
      <trkpt lat="43.3507" lon="-0.55271">
        <ele>127.031372</ele>
        <time>2013-09-20T10:05:04Z</time>
      </trkpt>
      <trkpt lat="43.35115" lon="-0.55319">
        <ele>125.589355</ele>
        <time>2013-09-20T10:05:18Z</time>
      </trkpt>
      <trkpt lat="43.35123" lon="-0.55325">
        <ele>126.069946</ele>
        <time>2013-09-20T10:06:48Z</time>
      </trkpt>
      <trkpt lat="43.35144" lon="-0.55343">
        <ele>126.550659</ele>
        <time>2013-09-20T10:06:55Z</time>
      </trkpt>
      <trkpt lat="43.35161" lon="-0.5536">
        <ele>126.550659</ele>
        <time>2013-09-20T10:07:00Z</time>
      </trkpt>
      <trkpt lat="43.35176" lon="-0.55375">
        <ele>126.069946</ele>
        <time>2013-09-20T10:07:04Z</time>
      </trkpt>
      <trkpt lat="43.35197" lon="-0.55383">
        <ele>126.069946</ele>
        <time>2013-09-20T10:07:09Z</time>
      </trkpt>
      <trkpt lat="43.3522" lon="-0.55375">
        <ele>126.069946</ele>
        <time>2013-09-20T10:07:14Z</time>
      </trkpt>
      <trkpt lat="43.35227" lon="-0.55339">
        <ele>126.550659</ele>
        <time>2013-09-20T10:07:22Z</time>
      </trkpt>
      <trkpt lat="43.35225" lon="-0.55333">
        <ele>127.511963</ele>
        <time>2013-09-20T10:07:23Z</time>
      </trkpt>
      <trkpt lat="43.35223" lon="-0.55322">
        <ele>127.511963</ele>
        <time>2013-09-20T10:07:25Z</time>
      </trkpt>
      <trkpt lat="43.35219" lon="-0.55245">
        <ele>129.434692</ele>
        <time>2013-09-20T10:07:39Z</time>
      </trkpt>
      <trkpt lat="43.35217" lon="-0.55233">
        <ele>128.954102</ele>
        <time>2013-09-20T10:07:41Z</time>
      </trkpt>
      <trkpt lat="43.35188" lon="-0.55182">
        <ele>130.876709</ele>
        <time>2013-09-20T10:07:53Z</time>
      </trkpt>
      <trkpt lat="43.35154" lon="-0.55131">
        <ele>131.3573</ele>
        <time>2013-09-20T10:08:06Z</time>
      </trkpt>
      <trkpt lat="43.35146" lon="-0.55127">
        <ele>131.837891</ele>
        <time>2013-09-20T10:08:08Z</time>
      </trkpt>
      <trkpt lat="43.35122" lon="-0.55117">
        <ele>131.837891</ele>
        <time>2013-09-20T10:08:14Z</time>
      </trkpt>
      <trkpt lat="43.35099" lon="-0.55108">
        <ele>131.837891</ele>
        <time>2013-09-20T10:08:19Z</time>
      </trkpt>
      <trkpt lat="43.35085" lon="-0.55099">
        <ele>131.3573</ele>
        <time>2013-09-20T10:08:22Z</time>
      </trkpt>
      <trkpt lat="43.35067" lon="-0.55089">
        <ele>131.3573</ele>
        <time>2013-09-20T10:08:26Z</time>
      </trkpt>
      <trkpt lat="43.35047" lon="-0.55079">
        <ele>131.3573</ele>
        <time>2013-09-20T10:08:30Z</time>
      </trkpt>
      <trkpt lat="43.35025" lon="-0.55059">
        <ele>131.3573</ele>
        <time>2013-09-20T10:08:35Z</time>
      </trkpt>
      <trkpt lat="43.34972" lon="-0.54984">
        <ele>131.3573</ele>
        <time>2013-09-20T10:08:50Z</time>
      </trkpt>
      <trkpt lat="43.34962" lon="-0.54962">
        <ele>131.837891</ele>
        <time>2013-09-20T10:08:54Z</time>
      </trkpt>
      <trkpt lat="43.34953" lon="-0.54947">
        <ele>132.318604</ele>
        <time>2013-09-20T10:08:57Z</time>
      </trkpt>
      <trkpt lat="43.34923" lon="-0.54913">
        <ele>133.760498</ele>
        <time>2013-09-20T10:09:08Z</time>
      </trkpt>
      <trkpt lat="43.34895" lon="-0.54899">
        <ele>134.241211</ele>
        <time>2013-09-20T10:09:15Z</time>
      </trkpt>
      <trkpt lat="43.34886" lon="-0.54896">
        <ele>133.760498</ele>
        <time>2013-09-20T10:09:17Z</time>
      </trkpt>
      <trkpt lat="43.34859" lon="-0.54893">
        <ele>132.799316</ele>
        <time>2013-09-20T10:09:22Z</time>
      </trkpt>
      <trkpt lat="43.34835" lon="-0.5487">
        <ele>132.318604</ele>
        <time>2013-09-20T10:09:28Z</time>
      </trkpt>
      <trkpt lat="43.34818" lon="-0.5484">
        <ele>131.3573</ele>
        <time>2013-09-20T10:09:33Z</time>
      </trkpt>
      <trkpt lat="43.34771" lon="-0.54784">
        <ele>134.721924</ele>
        <time>2013-09-20T10:09:47Z</time>
      </trkpt>
      <trkpt lat="43.34745" lon="-0.54751">
        <ele>136.644653</ele>
        <time>2013-09-20T10:10:00Z</time>
      </trkpt>
      <trkpt lat="43.3474" lon="-0.54747">
        <ele>135.683105</ele>
        <time>2013-09-20T10:10:11Z</time>
      </trkpt>
      <trkpt lat="43.34741" lon="-0.54747">
        <ele>137.125244</ele>
        <time>2013-09-20T10:10:32Z</time>
      </trkpt>
      <trkpt lat="43.34743" lon="-0.54752">
        <ele>136.644653</ele>
        <time>2013-09-20T10:11:03Z</time>
      </trkpt>
      <trkpt lat="43.34741" lon="-0.54747">
        <ele>136.16394</ele>
        <time>2013-09-20T10:11:19Z</time>
      </trkpt>
      <trkpt lat="43.34741" lon="-0.54747">
        <ele>138.086548</ele>
        <time>2013-09-20T10:11:21Z</time>
      </trkpt>
      <trkpt lat="43.3474" lon="-0.54746">
        <ele>137.605835</ele>
        <time>2013-09-20T10:11:27Z</time>
      </trkpt>
      <trkpt lat="43.34738" lon="-0.54745">
        <ele>137.605835</ele>
        <time>2013-09-20T10:11:47Z</time>
      </trkpt>
      <trkpt lat="43.34741" lon="-0.54748">
        <ele>137.125244</ele>
        <time>2013-09-20T10:12:24Z</time>
      </trkpt>
      <trkpt lat="43.34748" lon="-0.5475">
        <ele>138.567261</ele>
        <time>2013-09-20T10:13:42Z</time>
      </trkpt>
      <trkpt lat="43.3475" lon="-0.54752">
        <ele>138.567261</ele>
        <time>2013-09-20T10:14:47Z</time>
      </trkpt>
      <trkpt lat="43.34745" lon="-0.5475">
        <ele>139.047852</ele>
        <time>2013-09-20T10:15:44Z</time>
      </trkpt>
      <trkpt lat="43.34743" lon="-0.54746">
        <ele>139.047852</ele>
        <time>2013-09-20T10:16:28Z</time>
      </trkpt>
      <trkpt lat="43.34744" lon="-0.54747">
        <ele>139.528442</ele>
        <time>2013-09-20T10:17:42Z</time>
      </trkpt>
      <trkpt lat="43.34744" lon="-0.54748">
        <ele>140.489868</ele>
        <time>2013-09-20T10:18:35Z</time>
      </trkpt>
      <trkpt lat="43.34743" lon="-0.54747">
        <ele>140.970459</ele>
        <time>2013-09-20T10:19:24Z</time>
      </trkpt>
      <trkpt lat="43.34748" lon="-0.54754">
        <ele>141.45105</ele>
        <time>2013-09-20T10:20:03Z</time>
      </trkpt>
      <trkpt lat="43.34749" lon="-0.54756">
        <ele>140.970459</ele>
        <time>2013-09-20T10:20:31Z</time>
      </trkpt>
      <trkpt lat="43.34746" lon="-0.54747">
        <ele>142.412476</ele>
        <time>2013-09-20T10:21:40Z</time>
      </trkpt>
      <trkpt lat="43.34748" lon="-0.54747">
        <ele>143.373657</ele>
        <time>2013-09-20T10:22:22Z</time>
      </trkpt>
      <trkpt lat="43.34745" lon="-0.54747">
        <ele>143.85437</ele>
        <time>2013-09-20T10:23:03Z</time>
      </trkpt>
      <trkpt lat="43.34746" lon="-0.54749">
        <ele>143.373657</ele>
        <time>2013-09-20T10:23:53Z</time>
      </trkpt>
      <trkpt lat="43.34753" lon="-0.54753">
        <ele>142.893066</ele>
        <time>2013-09-20T10:24:18Z</time>
      </trkpt>
      <trkpt lat="43.34756" lon="-0.54759">
        <ele>144.335205</ele>
        <time>2013-09-20T10:25:03Z</time>
      </trkpt>
      <trkpt lat="43.34739" lon="-0.54744">
        <ele>144.335205</ele>
        <time>2013-09-20T10:25:43Z</time>
      </trkpt>
      <trkpt lat="43.34719" lon="-0.54727">
        <ele>144.335205</ele>
        <time>2013-09-20T10:28:33Z</time>
      </trkpt>
      <trkpt lat="43.34681" lon="-0.54695">
        <ele>143.85437</ele>
        <time>2013-09-20T10:28:45Z</time>
      </trkpt>
      <trkpt lat="43.3465" lon="-0.54677">
        <ele>145.296387</ele>
        <time>2013-09-20T10:28:56Z</time>
      </trkpt>
      <trkpt lat="43.34622" lon="-0.54667">
        <ele>143.85437</ele>
        <time>2013-09-20T10:29:03Z</time>
      </trkpt>
      <trkpt lat="43.34606" lon="-0.54643">
        <ele>142.893066</ele>
        <time>2013-09-20T10:29:08Z</time>
      </trkpt>
      <trkpt lat="43.3459" lon="-0.54577">
        <ele>140.970459</ele>
        <time>2013-09-20T10:29:18Z</time>
      </trkpt>
      <trkpt lat="43.34585" lon="-0.54566">
        <ele>140.970459</ele>
        <time>2013-09-20T10:29:20Z</time>
      </trkpt>
      <trkpt lat="43.34551" lon="-0.5455">
        <ele>141.45105</ele>
        <time>2013-09-20T10:29:28Z</time>
      </trkpt>
      <trkpt lat="43.34529" lon="-0.54554">
        <ele>140.970459</ele>
        <time>2013-09-20T10:29:33Z</time>
      </trkpt>
      <trkpt lat="43.3452" lon="-0.54551">
        <ele>140.489868</ele>
        <time>2013-09-20T10:29:35Z</time>
      </trkpt>
      <trkpt lat="43.34497" lon="-0.54537">
        <ele>140.489868</ele>
        <time>2013-09-20T10:29:40Z</time>
      </trkpt>
      <trkpt lat="43.34471" lon="-0.54519">
        <ele>139.047852</ele>
        <time>2013-09-20T10:29:45Z</time>
      </trkpt>
      <trkpt lat="43.34457" lon="-0.54512">
        <ele>139.047852</ele>
        <time>2013-09-20T10:29:48Z</time>
      </trkpt>
      <trkpt lat="43.34413" lon="-0.54504">
        <ele>139.528442</ele>
        <time>2013-09-20T10:29:57Z</time>
      </trkpt>
      <trkpt lat="43.34394" lon="-0.54495">
        <ele>138.567261</ele>
        <time>2013-09-20T10:30:01Z</time>
      </trkpt>
      <trkpt lat="43.34329" lon="-0.54424">
        <ele>138.086548</ele>
        <time>2013-09-20T10:30:17Z</time>
      </trkpt>
      <trkpt lat="43.34326" lon="-0.54418">
        <ele>137.605835</ele>
        <time>2013-09-20T10:30:18Z</time>
      </trkpt>
      <trkpt lat="43.34313" lon="-0.54365">
        <ele>139.047852</ele>
        <time>2013-09-20T10:30:27Z</time>
      </trkpt>
      <trkpt lat="43.34304" lon="-0.5434">
        <ele>139.528442</ele>
        <time>2013-09-20T10:30:32Z</time>
      </trkpt>
      <trkpt lat="43.34264" lon="-0.5427">
        <ele>138.086548</ele>
        <time>2013-09-20T10:30:45Z</time>
      </trkpt>
      <trkpt lat="43.34256" lon="-0.54258">
        <ele>138.086548</ele>
        <time>2013-09-20T10:30:47Z</time>
      </trkpt>
      <trkpt lat="43.34248" lon="-0.54242">
        <ele>137.125244</ele>
        <time>2013-09-20T10:30:50Z</time>
      </trkpt>
      <trkpt lat="43.34201" lon="-0.54213">
        <ele>136.16394</ele>
        <time>2013-09-20T10:31:00Z</time>
      </trkpt>
      <trkpt lat="43.34177" lon="-0.54197">
        <ele>136.644653</ele>
        <time>2013-09-20T10:31:05Z</time>
      </trkpt>
      <trkpt lat="43.34159" lon="-0.54182">
        <ele>138.086548</ele>
        <time>2013-09-20T10:31:09Z</time>
      </trkpt>
      <trkpt lat="43.34118" lon="-0.54144">
        <ele>140.009155</ele>
        <time>2013-09-20T10:31:21Z</time>
      </trkpt>
      <trkpt lat="43.34089" lon="-0.54107">
        <ele>141.45105</ele>
        <time>2013-09-20T10:31:32Z</time>
      </trkpt>
      <trkpt lat="43.3407" lon="-0.54078">
        <ele>141.931763</ele>
        <time>2013-09-20T10:31:39Z</time>
      </trkpt>
      <trkpt lat="43.34025" lon="-0.5401">
        <ele>142.893066</ele>
        <time>2013-09-20T10:31:55Z</time>
      </trkpt>
      <trkpt lat="43.33975" lon="-0.53965">
        <ele>140.970459</ele>
        <time>2013-09-20T10:32:07Z</time>
      </trkpt>
      <trkpt lat="43.33954" lon="-0.53946">
        <ele>139.047852</ele>
        <time>2013-09-20T10:32:12Z</time>
      </trkpt>
      <trkpt lat="43.33941" lon="-0.53935">
        <ele>139.047852</ele>
        <time>2013-09-20T10:32:15Z</time>
      </trkpt>
      <trkpt lat="43.33877" lon="-0.539">
        <ele>137.605835</ele>
        <time>2013-09-20T10:32:28Z</time>
      </trkpt>
      <trkpt lat="43.33857" lon="-0.53889">
        <ele>138.086548</ele>
        <time>2013-09-20T10:32:32Z</time>
      </trkpt>
      <trkpt lat="43.33815" lon="-0.53848">
        <ele>140.489868</ele>
        <time>2013-09-20T10:32:44Z</time>
      </trkpt>
      <trkpt lat="43.33799" lon="-0.53823">
        <ele>140.970459</ele>
        <time>2013-09-20T10:32:49Z</time>
      </trkpt>
      <trkpt lat="43.33781" lon="-0.5379">
        <ele>140.009155</ele>
        <time>2013-09-20T10:32:55Z</time>
      </trkpt>
      <trkpt lat="43.33768" lon="-0.53767">
        <ele>140.009155</ele>
        <time>2013-09-20T10:32:59Z</time>
      </trkpt>
      <trkpt lat="43.33702" lon="-0.5368">
        <ele>139.528442</ele>
        <time>2013-09-20T10:33:16Z</time>
      </trkpt>
      <trkpt lat="43.33659" lon="-0.53597">
        <ele>140.489868</ele>
        <time>2013-09-20T10:33:32Z</time>
      </trkpt>
      <trkpt lat="43.33619" lon="-0.53545">
        <ele>139.528442</ele>
        <time>2013-09-20T10:33:43Z</time>
      </trkpt>
      <trkpt lat="43.33578" lon="-0.53519">
        <ele>139.047852</ele>
        <time>2013-09-20T10:33:52Z</time>
      </trkpt>
      <trkpt lat="43.33563" lon="-0.53516">
        <ele>140.009155</ele>
        <time>2013-09-20T10:33:55Z</time>
      </trkpt>
      <trkpt lat="43.33549" lon="-0.53514">
        <ele>140.009155</ele>
        <time>2013-09-20T10:33:58Z</time>
      </trkpt>
      <trkpt lat="43.33497" lon="-0.53494">
        <ele>140.009155</ele>
        <time>2013-09-20T10:34:09Z</time>
      </trkpt>
      <trkpt lat="43.33447" lon="-0.53479">
        <ele>140.489868</ele>
        <time>2013-09-20T10:34:19Z</time>
      </trkpt>
      <trkpt lat="43.33429" lon="-0.53471">
        <ele>140.970459</ele>
        <time>2013-09-20T10:34:23Z</time>
      </trkpt>
      <trkpt lat="43.33383" lon="-0.53429">
        <ele>141.931763</ele>
        <time>2013-09-20T10:34:36Z</time>
      </trkpt>
      <trkpt lat="43.33374" lon="-0.53415">
        <ele>141.931763</ele>
        <time>2013-09-20T10:34:39Z</time>
      </trkpt>
      <trkpt lat="43.33364" lon="-0.53395">
        <ele>141.931763</ele>
        <time>2013-09-20T10:34:43Z</time>
      </trkpt>
      <trkpt lat="43.33359" lon="-0.53368">
        <ele>141.45105</ele>
        <time>2013-09-20T10:34:53Z</time>
      </trkpt>
      <trkpt lat="43.33359" lon="-0.53363">
        <ele>141.931763</ele>
        <time>2013-09-20T10:34:55Z</time>
      </trkpt>
      <trkpt lat="43.33401" lon="-0.53306">
        <ele>142.893066</ele>
        <time>2013-09-20T10:35:11Z</time>
      </trkpt>
      <trkpt lat="43.33454" lon="-0.5324">
        <ele>145.7771</ele>
        <time>2013-09-20T10:35:29Z</time>
      </trkpt>
      <trkpt lat="43.33466" lon="-0.53246">
        <ele>145.7771</ele>
        <time>2013-09-20T10:35:33Z</time>
      </trkpt>
      <trkpt lat="43.33483" lon="-0.53233">
        <ele>147.218994</ele>
        <time>2013-09-20T10:35:41Z</time>
      </trkpt>
      <trkpt lat="43.33514" lon="-0.53229">
        <ele>150.103027</ele>
        <time>2013-09-20T10:35:56Z</time>
      </trkpt>
      <trkpt lat="43.33542" lon="-0.53231">
        <ele>152.986938</ele>
        <time>2013-09-20T10:36:09Z</time>
      </trkpt>
      <trkpt lat="43.33566" lon="-0.53235">
        <ele>155.390259</ele>
        <time>2013-09-20T10:36:21Z</time>
      </trkpt>
      <trkpt lat="43.33587" lon="-0.5324">
        <ele>157.312866</ele>
        <time>2013-09-20T10:36:32Z</time>
      </trkpt>
      <trkpt lat="43.33592" lon="-0.53239">
        <ele>157.793579</ele>
        <time>2013-09-20T10:36:35Z</time>
      </trkpt>
      <trkpt lat="43.33599" lon="-0.53238">
        <ele>159.716187</ele>
        <time>2013-09-20T10:36:39Z</time>
      </trkpt>
      <trkpt lat="43.33605" lon="-0.53239">
        <ele>161.158203</ele>
        <time>2013-09-20T10:36:44Z</time>
      </trkpt>
      <trkpt lat="43.33626" lon="-0.53247">
        <ele>163.561523</ele>
        <time>2013-09-20T10:36:58Z</time>
      </trkpt>
      <trkpt lat="43.33633" lon="-0.53249">
        <ele>164.522705</ele>
        <time>2013-09-20T10:37:02Z</time>
      </trkpt>
      <trkpt lat="43.33661" lon="-0.53268">
        <ele>165.964722</ele>
        <time>2013-09-20T10:37:18Z</time>
      </trkpt>
      <trkpt lat="43.33693" lon="-0.533">
        <ele>169.329468</ele>
        <time>2013-09-20T10:37:34Z</time>
      </trkpt>
      <trkpt lat="43.33719" lon="-0.53313">
        <ele>170.771362</ele>
        <time>2013-09-20T10:37:48Z</time>
      </trkpt>
      <trkpt lat="43.33741" lon="-0.53304">
        <ele>173.655273</ele>
        <time>2013-09-20T10:38:01Z</time>
      </trkpt>
      <trkpt lat="43.33766" lon="-0.53304">
        <ele>174.616577</ele>
        <time>2013-09-20T10:38:15Z</time>
      </trkpt>
      <trkpt lat="43.3379" lon="-0.53306">
        <ele>177.02002</ele>
        <time>2013-09-20T10:38:28Z</time>
      </trkpt>
      <trkpt lat="43.33796" lon="-0.53306">
        <ele>177.02002</ele>
        <time>2013-09-20T10:38:31Z</time>
      </trkpt>
      <trkpt lat="43.33817" lon="-0.53303">
        <ele>180.865234</ele>
        <time>2013-09-20T10:38:43Z</time>
      </trkpt>
      <trkpt lat="43.3383" lon="-0.53304">
        <ele>183.749023</ele>
        <time>2013-09-20T10:38:51Z</time>
      </trkpt>
      <trkpt lat="43.33852" lon="-0.53305">
        <ele>185.191162</ele>
        <time>2013-09-20T10:39:05Z</time>
      </trkpt>
      <trkpt lat="43.33873" lon="-0.53307">
        <ele>186.633179</ele>
        <time>2013-09-20T10:39:17Z</time>
      </trkpt>
      <trkpt lat="43.33894" lon="-0.53308">
        <ele>189.516968</ele>
        <time>2013-09-20T10:39:28Z</time>
      </trkpt>
      <trkpt lat="43.33916" lon="-0.53315">
        <ele>190.478394</ele>
        <time>2013-09-20T10:39:41Z</time>
      </trkpt>
      <trkpt lat="43.33947" lon="-0.53315">
        <ele>192.881714</ele>
        <time>2013-09-20T10:39:56Z</time>
      </trkpt>
      <trkpt lat="43.33951" lon="-0.53315">
        <ele>192.881714</ele>
        <time>2013-09-20T10:39:58Z</time>
      </trkpt>
      <trkpt lat="43.33972" lon="-0.53308">
        <ele>196.726929</ele>
        <time>2013-09-20T10:40:09Z</time>
      </trkpt>
      <trkpt lat="43.33986" lon="-0.53311">
        <ele>198.649536</ele>
        <time>2013-09-20T10:40:19Z</time>
      </trkpt>
      <trkpt lat="43.33995" lon="-0.53312">
        <ele>199.130127</ele>
        <time>2013-09-20T10:40:26Z</time>
      </trkpt>
      <trkpt lat="43.33997" lon="-0.53311">
        <ele>199.130127</ele>
        <time>2013-09-20T10:40:27Z</time>
      </trkpt>
      <trkpt lat="43.34008" lon="-0.53312">
        <ele>201.052856</ele>
        <time>2013-09-20T10:40:32Z</time>
      </trkpt>
      <trkpt lat="43.34036" lon="-0.53309">
        <ele>202.494873</ele>
        <time>2013-09-20T10:40:46Z</time>
      </trkpt>
      <trkpt lat="43.34062" lon="-0.53291">
        <ele>204.898071</ele>
        <time>2013-09-20T10:41:03Z</time>
      </trkpt>
      <trkpt lat="43.3408" lon="-0.53276">
        <ele>208.262817</ele>
        <time>2013-09-20T10:41:16Z</time>
      </trkpt>
      <trkpt lat="43.34101" lon="-0.5326">
        <ele>211.627441</ele>
        <time>2013-09-20T10:41:30Z</time>
      </trkpt>
      <trkpt lat="43.34115" lon="-0.53247">
        <ele>213.550049</ele>
        <time>2013-09-20T10:41:41Z</time>
      </trkpt>
      <trkpt lat="43.3412" lon="-0.53242">
        <ele>214.991943</ele>
        <time>2013-09-20T10:41:45Z</time>
      </trkpt>
      <trkpt lat="43.34127" lon="-0.5322">
        <ele>218.356567</ele>
        <time>2013-09-20T10:41:56Z</time>
      </trkpt>
      <trkpt lat="43.34129" lon="-0.53216">
        <ele>219.317993</ele>
        <time>2013-09-20T10:41:58Z</time>
      </trkpt>
      <trkpt lat="43.34139" lon="-0.53185">
        <ele>221.240601</ele>
        <time>2013-09-20T10:42:14Z</time>
      </trkpt>
      <trkpt lat="43.34164" lon="-0.53182">
        <ele>225.566528</ele>
        <time>2013-09-20T10:42:30Z</time>
      </trkpt>
      <trkpt lat="43.34166" lon="-0.53182">
        <ele>225.566528</ele>
        <time>2013-09-20T10:42:31Z</time>
      </trkpt>
      <trkpt lat="43.34181" lon="-0.53176">
        <ele>225.566528</ele>
        <time>2013-09-20T10:42:44Z</time>
      </trkpt>
      <trkpt lat="43.34174" lon="-0.53186">
        <ele>225.566528</ele>
        <time>2013-09-20T10:43:12Z</time>
      </trkpt>
      <trkpt lat="43.34186" lon="-0.53175">
        <ele>226.047119</ele>
        <time>2013-09-20T10:43:43Z</time>
      </trkpt>
      <trkpt lat="43.34213" lon="-0.53148">
        <ele>225.085938</ele>
        <time>2013-09-20T10:43:53Z</time>
      </trkpt>
      <trkpt lat="43.34248" lon="-0.53108">
        <ele>225.085938</ele>
        <time>2013-09-20T10:44:03Z</time>
      </trkpt>
      <trkpt lat="43.34265" lon="-0.53086">
        <ele>225.566528</ele>
        <time>2013-09-20T10:44:08Z</time>
      </trkpt>
      <trkpt lat="43.34289" lon="-0.53037">
        <ele>226.527832</ele>
        <time>2013-09-20T10:44:18Z</time>
      </trkpt>
      <trkpt lat="43.34309" lon="-0.53019">
        <ele>226.527832</ele>
        <time>2013-09-20T10:44:25Z</time>
      </trkpt>
      <trkpt lat="43.3436" lon="-0.52997">
        <ele>224.124512</ele>
        <time>2013-09-20T10:44:35Z</time>
      </trkpt>
      <trkpt lat="43.34389" lon="-0.52992">
        <ele>223.643799</ele>
        <time>2013-09-20T10:44:39Z</time>
      </trkpt>
      <trkpt lat="43.34407" lon="-0.53016">
        <ele>225.085938</ele>
        <time>2013-09-20T10:44:45Z</time>
      </trkpt>
      <trkpt lat="43.34426" lon="-0.53061">
        <ele>226.047119</ele>
        <time>2013-09-20T10:44:56Z</time>
      </trkpt>
      <trkpt lat="43.34428" lon="-0.53109">
        <ele>226.527832</ele>
        <time>2013-09-20T10:45:06Z</time>
      </trkpt>
      <trkpt lat="43.3443" lon="-0.53173">
        <ele>225.085938</ele>
        <time>2013-09-20T10:45:17Z</time>
      </trkpt>
      <trkpt lat="43.34432" lon="-0.53179">
        <ele>224.605225</ele>
        <time>2013-09-20T10:45:18Z</time>
      </trkpt>
      <trkpt lat="43.34449" lon="-0.53226">
        <ele>225.085938</ele>
        <time>2013-09-20T10:45:25Z</time>
      </trkpt>
      <trkpt lat="43.34459" lon="-0.53249">
        <ele>225.566528</ele>
        <time>2013-09-20T10:45:29Z</time>
      </trkpt>
      <trkpt lat="43.3448" lon="-0.53297">
        <ele>226.527832</ele>
        <time>2013-09-20T10:45:39Z</time>
      </trkpt>
      <trkpt lat="43.34494" lon="-0.53348">
        <ele>227.008545</ele>
        <time>2013-09-20T10:45:50Z</time>
      </trkpt>
      <trkpt lat="43.34494" lon="-0.53361">
        <ele>226.527832</ele>
        <time>2013-09-20T10:45:52Z</time>
      </trkpt>
      <trkpt lat="43.34494" lon="-0.53376">
        <ele>224.605225</ele>
        <time>2013-09-20T10:45:54Z</time>
      </trkpt>
      <trkpt lat="43.34494" lon="-0.53395">
        <ele>223.643799</ele>
        <time>2013-09-20T10:45:56Z</time>
      </trkpt>
      <trkpt lat="43.34494" lon="-0.53403">
        <ele>223.163208</ele>
        <time>2013-09-20T10:45:57Z</time>
      </trkpt>
      <trkpt lat="43.34511" lon="-0.53439">
        <ele>221.721191</ele>
        <time>2013-09-20T10:46:01Z</time>
      </trkpt>
      <trkpt lat="43.3454" lon="-0.53509">
        <ele>222.201782</ele>
        <time>2013-09-20T10:46:11Z</time>
      </trkpt>
      <trkpt lat="43.34534" lon="-0.53555">
        <ele>222.201782</ele>
        <time>2013-09-20T10:46:20Z</time>
      </trkpt>
      <trkpt lat="43.34533" lon="-0.53585">
        <ele>222.201782</ele>
        <time>2013-09-20T10:46:24Z</time>
      </trkpt>
      <trkpt lat="43.34531" lon="-0.53609">
        <ele>223.163208</ele>
        <time>2013-09-20T10:46:28Z</time>
      </trkpt>
      <trkpt lat="43.34548" lon="-0.5364">
        <ele>226.527832</ele>
        <time>2013-09-20T10:46:39Z</time>
      </trkpt>
      <trkpt lat="43.34569" lon="-0.53651">
        <ele>228.450439</ele>
        <time>2013-09-20T10:46:50Z</time>
      </trkpt>
      <trkpt lat="43.34596" lon="-0.53634">
        <ele>227.489136</ele>
        <time>2013-09-20T10:47:00Z</time>
      </trkpt>
      <trkpt lat="43.346" lon="-0.53631">
        <ele>227.489136</ele>
        <time>2013-09-20T10:47:01Z</time>
      </trkpt>
      <trkpt lat="43.34608" lon="-0.53623">
        <ele>225.566528</ele>
        <time>2013-09-20T10:47:03Z</time>
      </trkpt>
      <trkpt lat="43.34635" lon="-0.53589">
        <ele>224.124512</ele>
        <time>2013-09-20T10:47:08Z</time>
      </trkpt>
      <trkpt lat="43.34655" lon="-0.53521">
        <ele>220.759888</ele>
        <time>2013-09-20T10:47:16Z</time>
      </trkpt>
      <trkpt lat="43.34673" lon="-0.53469">
        <ele>217.395386</ele>
        <time>2013-09-20T10:47:21Z</time>
      </trkpt>
      <trkpt lat="43.34677" lon="-0.53459">
        <ele>217.395386</ele>
        <time>2013-09-20T10:47:22Z</time>
      </trkpt>
      <trkpt lat="43.34701" lon="-0.53379">
        <ele>213.550049</ele>
        <time>2013-09-20T10:47:30Z</time>
      </trkpt>
      <trkpt lat="43.34711" lon="-0.53316">
        <ele>212.588623</ele>
        <time>2013-09-20T10:47:37Z</time>
      </trkpt>
      <trkpt lat="43.34719" lon="-0.53291">
        <ele>212.108032</ele>
        <time>2013-09-20T10:47:41Z</time>
      </trkpt>
      <trkpt lat="43.34722" lon="-0.53278">
        <ele>212.108032</ele>
        <time>2013-09-20T10:47:43Z</time>
      </trkpt>
      <trkpt lat="43.34749" lon="-0.53224">
        <ele>209.704834</ele>
        <time>2013-09-20T10:47:55Z</time>
      </trkpt>
      <trkpt lat="43.34788" lon="-0.53179">
        <ele>207.782104</ele>
        <time>2013-09-20T10:48:03Z</time>
      </trkpt>
      <trkpt lat="43.34806" lon="-0.53167">
        <ele>206.340088</ele>
        <time>2013-09-20T10:48:06Z</time>
      </trkpt>
      <trkpt lat="43.34812" lon="-0.53166">
        <ele>205.859497</ele>
        <time>2013-09-20T10:48:07Z</time>
      </trkpt>
      <trkpt lat="43.34825" lon="-0.53165">
        <ele>205.378784</ele>
        <time>2013-09-20T10:48:09Z</time>
      </trkpt>
      <trkpt lat="43.34877" lon="-0.53169">
        <ele>205.859497</ele>
        <time>2013-09-20T10:48:20Z</time>
      </trkpt>
      <trkpt lat="43.34911" lon="-0.53169">
        <ele>208.743408</ele>
        <time>2013-09-20T10:48:31Z</time>
      </trkpt>
      <trkpt lat="43.34931" lon="-0.5319">
        <ele>211.146729</ele>
        <time>2013-09-20T10:48:41Z</time>
      </trkpt>
      <trkpt lat="43.34933" lon="-0.53193">
        <ele>211.146729</ele>
        <time>2013-09-20T10:48:42Z</time>
      </trkpt>
      <trkpt lat="43.34961" lon="-0.53234">
        <ele>212.588623</ele>
        <time>2013-09-20T10:48:55Z</time>
      </trkpt>
      <trkpt lat="43.34967" lon="-0.53282">
        <ele>212.108032</ele>
        <time>2013-09-20T10:49:06Z</time>
      </trkpt>
      <trkpt lat="43.34969" lon="-0.53311">
        <ele>209.704834</ele>
        <time>2013-09-20T10:49:10Z</time>
      </trkpt>
      <trkpt lat="43.34988" lon="-0.53356">
        <ele>209.224121</ele>
        <time>2013-09-20T10:49:16Z</time>
      </trkpt>
      <trkpt lat="43.35" lon="-0.53448">
        <ele>205.378784</ele>
        <time>2013-09-20T10:49:27Z</time>
      </trkpt>
      <trkpt lat="43.34999" lon="-0.53555">
        <ele>204.898071</ele>
        <time>2013-09-20T10:49:42Z</time>
      </trkpt>
      <trkpt lat="43.35015" lon="-0.53663">
        <ele>202.975464</ele>
        <time>2013-09-20T10:49:57Z</time>
      </trkpt>
      <trkpt lat="43.3503" lon="-0.53701">
        <ele>202.014282</ele>
        <time>2013-09-20T10:50:02Z</time>
      </trkpt>
      <trkpt lat="43.35051" lon="-0.5378">
        <ele>203.93689</ele>
        <time>2013-09-20T10:50:17Z</time>
      </trkpt>
      <trkpt lat="43.35057" lon="-0.53814">
        <ele>205.378784</ele>
        <time>2013-09-20T10:50:27Z</time>
      </trkpt>
      <trkpt lat="43.35067" lon="-0.5386">
        <ele>207.301392</ele>
        <time>2013-09-20T10:50:37Z</time>
      </trkpt>
      <trkpt lat="43.35067" lon="-0.53865">
        <ele>207.782104</ele>
        <time>2013-09-20T10:50:38Z</time>
      </trkpt>
      <trkpt lat="43.35065" lon="-0.53918">
        <ele>208.262817</ele>
        <time>2013-09-20T10:50:49Z</time>
      </trkpt>
      <trkpt lat="43.35069" lon="-0.53963">
        <ele>207.782104</ele>
        <time>2013-09-20T10:50:58Z</time>
      </trkpt>
      <trkpt lat="43.35092" lon="-0.54003">
        <ele>209.224121</ele>
        <time>2013-09-20T10:51:10Z</time>
      </trkpt>
      <trkpt lat="43.35118" lon="-0.54026">
        <ele>210.666016</ele>
        <time>2013-09-20T10:51:22Z</time>
      </trkpt>
      <trkpt lat="43.35159" lon="-0.54043">
        <ele>209.224121</ele>
        <time>2013-09-20T10:51:34Z</time>
      </trkpt>
      <trkpt lat="43.35184" lon="-0.54059">
        <ele>207.782104</ele>
        <time>2013-09-20T10:51:39Z</time>
      </trkpt>
      <trkpt lat="43.3519" lon="-0.54094">
        <ele>203.93689</ele>
        <time>2013-09-20T10:51:45Z</time>
      </trkpt>
      <trkpt lat="43.35188" lon="-0.541">
        <ele>203.456177</ele>
        <time>2013-09-20T10:51:46Z</time>
      </trkpt>
      <trkpt lat="43.35179" lon="-0.54128">
        <ele>201.052856</ele>
        <time>2013-09-20T10:51:50Z</time>
      </trkpt>
      <trkpt lat="43.35172" lon="-0.54161">
        <ele>197.688232</ele>
        <time>2013-09-20T10:51:54Z</time>
      </trkpt>
      <trkpt lat="43.3517" lon="-0.54169">
        <ele>196.246338</ele>
        <time>2013-09-20T10:51:55Z</time>
      </trkpt>
      <trkpt lat="43.35174" lon="-0.54202">
        <ele>193.843018</ele>
        <time>2013-09-20T10:51:59Z</time>
      </trkpt>
      <trkpt lat="43.35184" lon="-0.5423">
        <ele>191.920288</ele>
        <time>2013-09-20T10:52:02Z</time>
      </trkpt>
      <trkpt lat="43.352" lon="-0.54302">
        <ele>189.516968</ele>
        <time>2013-09-20T10:52:09Z</time>
      </trkpt>
      <trkpt lat="43.35197" lon="-0.54337">
        <ele>188.555786</ele>
        <time>2013-09-20T10:52:13Z</time>
      </trkpt>
      <trkpt lat="43.35176" lon="-0.54435">
        <ele>189.516968</ele>
        <time>2013-09-20T10:52:29Z</time>
      </trkpt>
      <trkpt lat="43.35165" lon="-0.54471">
        <ele>189.036377</ele>
        <time>2013-09-20T10:52:35Z</time>
      </trkpt>
      <trkpt lat="43.35163" lon="-0.545">
        <ele>185.191162</ele>
        <time>2013-09-20T10:52:39Z</time>
      </trkpt>
      <trkpt lat="43.35164" lon="-0.5451">
        <ele>184.710571</ele>
        <time>2013-09-20T10:52:40Z</time>
      </trkpt>
      <trkpt lat="43.35162" lon="-0.54527">
        <ele>183.268433</ele>
        <time>2013-09-20T10:52:42Z</time>
      </trkpt>
      <trkpt lat="43.35162" lon="-0.54545">
        <ele>181.345825</ele>
        <time>2013-09-20T10:52:44Z</time>
      </trkpt>
      <trkpt lat="43.35163" lon="-0.54582">
        <ele>177.50061</ele>
        <time>2013-09-20T10:52:48Z</time>
      </trkpt>
      <trkpt lat="43.3514" lon="-0.54624">
        <ele>174.616577</ele>
        <time>2013-09-20T10:52:54Z</time>
      </trkpt>
      <trkpt lat="43.35115" lon="-0.54636">
        <ele>171.732666</ele>
        <time>2013-09-20T10:52:58Z</time>
      </trkpt>
      <trkpt lat="43.35096" lon="-0.54655">
        <ele>171.252075</ele>
        <time>2013-09-20T10:53:02Z</time>
      </trkpt>
      <trkpt lat="43.35068" lon="-0.54652">
        <ele>168.368042</ele>
        <time>2013-09-20T10:53:07Z</time>
      </trkpt>
      <trkpt lat="43.35059" lon="-0.5465">
        <ele>167.887329</ele>
        <time>2013-09-20T10:53:08Z</time>
      </trkpt>
      <trkpt lat="43.35025" lon="-0.54647">
        <ele>164.042114</ele>
        <time>2013-09-20T10:53:12Z</time>
      </trkpt>
      <trkpt lat="43.35017" lon="-0.54645">
        <ele>163.561523</ele>
        <time>2013-09-20T10:53:13Z</time>
      </trkpt>
      <trkpt lat="43.34985" lon="-0.54638">
        <ele>160.67749</ele>
        <time>2013-09-20T10:53:17Z</time>
      </trkpt>
      <trkpt lat="43.34966" lon="-0.54634">
        <ele>156.351563</ele>
        <time>2013-09-20T10:53:20Z</time>
      </trkpt>
      <trkpt lat="43.3496" lon="-0.54633">
        <ele>154.909546</ele>
        <time>2013-09-20T10:53:21Z</time>
      </trkpt>
      <trkpt lat="43.34929" lon="-0.54648">
        <ele>151.064209</ele>
        <time>2013-09-20T10:53:27Z</time>
      </trkpt>
      <trkpt lat="43.34924" lon="-0.54658">
        <ele>149.622314</ele>
        <time>2013-09-20T10:53:29Z</time>
      </trkpt>
      <trkpt lat="43.34919" lon="-0.54671">
        <ele>148.661011</ele>
        <time>2013-09-20T10:53:31Z</time>
      </trkpt>
      <trkpt lat="43.34898" lon="-0.54732">
        <ele>146.257813</ele>
        <time>2013-09-20T10:53:39Z</time>
      </trkpt>
      <trkpt lat="43.3489" lon="-0.54745">
        <ele>145.296387</ele>
        <time>2013-09-20T10:53:41Z</time>
      </trkpt>
      <trkpt lat="43.34885" lon="-0.54752">
        <ele>144.815796</ele>
        <time>2013-09-20T10:53:42Z</time>
      </trkpt>
      <trkpt lat="43.34854" lon="-0.54784">
        <ele>140.970459</ele>
        <time>2013-09-20T10:53:47Z</time>
      </trkpt>
      <trkpt lat="43.34847" lon="-0.54789">
        <ele>140.489868</ele>
        <time>2013-09-20T10:53:48Z</time>
      </trkpt>
      <trkpt lat="43.34825" lon="-0.54839">
        <ele>137.605835</ele>
        <time>2013-09-20T10:53:56Z</time>
      </trkpt>
      <trkpt lat="43.34831" lon="-0.54865">
        <ele>138.086548</ele>
        <time>2013-09-20T10:54:00Z</time>
      </trkpt>
      <trkpt lat="43.34852" lon="-0.54888">
        <ele>138.086548</ele>
        <time>2013-09-20T10:54:06Z</time>
      </trkpt>
      <trkpt lat="43.34911" lon="-0.54907">
        <ele>138.086548</ele>
        <time>2013-09-20T10:54:20Z</time>
      </trkpt>
      <trkpt lat="43.34938" lon="-0.5493">
        <ele>138.086548</ele>
        <time>2013-09-20T10:54:28Z</time>
      </trkpt>
      <trkpt lat="43.34957" lon="-0.5496">
        <ele>137.605835</ele>
        <time>2013-09-20T10:54:33Z</time>
      </trkpt>
      <trkpt lat="43.35012" lon="-0.55045">
        <ele>136.644653</ele>
        <time>2013-09-20T10:54:47Z</time>
      </trkpt>
      <trkpt lat="43.35043" lon="-0.55077">
        <ele>136.16394</ele>
        <time>2013-09-20T10:54:55Z</time>
      </trkpt>
      <trkpt lat="43.3511" lon="-0.5511">
        <ele>136.644653</ele>
        <time>2013-09-20T10:55:10Z</time>
      </trkpt>
      <trkpt lat="43.35122" lon="-0.55114">
        <ele>137.605835</ele>
        <time>2013-09-20T10:55:13Z</time>
      </trkpt>
      <trkpt lat="43.35155" lon="-0.55131">
        <ele>136.16394</ele>
        <time>2013-09-20T10:55:20Z</time>
      </trkpt>
      <trkpt lat="43.35191" lon="-0.55185">
        <ele>134.721924</ele>
        <time>2013-09-20T10:55:30Z</time>
      </trkpt>
      <trkpt lat="43.35216" lon="-0.55233">
        <ele>133.760498</ele>
        <time>2013-09-20T10:55:38Z</time>
      </trkpt>
      <trkpt lat="43.35222" lon="-0.55317">
        <ele>131.837891</ele>
        <time>2013-09-20T10:55:49Z</time>
      </trkpt>
      <trkpt lat="43.35224" lon="-0.55334">
        <ele>132.318604</ele>
        <time>2013-09-20T10:55:51Z</time>
      </trkpt>
      <trkpt lat="43.35221" lon="-0.55379">
        <ele>130.876709</ele>
        <time>2013-09-20T10:55:58Z</time>
      </trkpt>
      <trkpt lat="43.35211" lon="-0.55383">
        <ele>130.395996</ele>
        <time>2013-09-20T10:56:00Z</time>
      </trkpt>
      <trkpt lat="43.352" lon="-0.55386">
        <ele>129.915283</ele>
        <time>2013-09-20T10:56:02Z</time>
      </trkpt>
      <trkpt lat="43.3517" lon="-0.55377">
        <ele>129.434692</ele>
        <time>2013-09-20T10:56:08Z</time>
      </trkpt>
      <trkpt lat="43.35088" lon="-0.55299">
        <ele>129.915283</ele>
        <time>2013-09-20T10:56:27Z</time>
      </trkpt>
      <trkpt lat="43.35064" lon="-0.55275">
        <ele>129.434692</ele>
        <time>2013-09-20T10:56:33Z</time>
      </trkpt>
      <trkpt lat="43.35042" lon="-0.55286">
        <ele>130.395996</ele>
        <time>2013-09-20T10:56:39Z</time>
      </trkpt>
      <trkpt lat="43.35011" lon="-0.55368">
        <ele>129.434692</ele>
        <time>2013-09-20T10:56:52Z</time>
      </trkpt>
      <trkpt lat="43.3498" lon="-0.55446">
        <ele>129.915283</ele>
        <time>2013-09-20T10:57:05Z</time>
      </trkpt>
      <trkpt lat="43.34977" lon="-0.55458">
        <ele>128.954102</ele>
        <time>2013-09-20T10:57:07Z</time>
      </trkpt>
      <trkpt lat="43.34979" lon="-0.55484">
        <ele>128.954102</ele>
        <time>2013-09-20T10:57:11Z</time>
      </trkpt>
      <trkpt lat="43.34998" lon="-0.55554">
        <ele>128.473389</ele>
        <time>2013-09-20T10:57:22Z</time>
      </trkpt>
      <trkpt lat="43.34993" lon="-0.55598">
        <ele>129.434692</ele>
        <time>2013-09-20T10:57:29Z</time>
      </trkpt>
      <trkpt lat="43.34982" lon="-0.55619">
        <ele>129.434692</ele>
        <time>2013-09-20T10:57:33Z</time>
      </trkpt>
      <trkpt lat="43.34965" lon="-0.55643">
        <ele>128.954102</ele>
        <time>2013-09-20T10:57:38Z</time>
      </trkpt>
      <trkpt lat="43.34965" lon="-0.55674">
        <ele>128.954102</ele>
        <time>2013-09-20T10:57:43Z</time>
      </trkpt>
      <trkpt lat="43.35004" lon="-0.55784">
        <ele>128.954102</ele>
        <time>2013-09-20T10:58:01Z</time>
      </trkpt>
      <trkpt lat="43.35035" lon="-0.55872">
        <ele>127.511963</ele>
        <time>2013-09-20T10:58:15Z</time>
      </trkpt>
      <trkpt lat="43.35038" lon="-0.55885">
        <ele>129.434692</ele>
        <time>2013-09-20T10:58:17Z</time>
      </trkpt>
      <trkpt lat="43.35047" lon="-0.55908">
        <ele>128.473389</ele>
        <time>2013-09-20T10:58:21Z</time>
      </trkpt>
      <trkpt lat="43.35054" lon="-0.55925">
        <ele>128.473389</ele>
        <time>2013-09-20T10:58:24Z</time>
      </trkpt>
      <trkpt lat="43.35092" lon="-0.5604">
        <ele>128.473389</ele>
        <time>2013-09-20T10:58:43Z</time>
      </trkpt>
      <trkpt lat="43.35109" lon="-0.56089">
        <ele>128.473389</ele>
        <time>2013-09-20T10:58:51Z</time>
      </trkpt>
      <trkpt lat="43.35119" lon="-0.56122">
        <ele>127.992554</ele>
        <time>2013-09-20T10:58:56Z</time>
      </trkpt>
      <trkpt lat="43.35119" lon="-0.56245">
        <ele>127.992554</ele>
        <time>2013-09-20T10:59:14Z</time>
      </trkpt>
      <trkpt lat="43.35117" lon="-0.56351">
        <ele>127.992554</ele>
        <time>2013-09-20T10:59:30Z</time>
      </trkpt>
      <trkpt lat="43.35115" lon="-0.56377">
        <ele>128.473389</ele>
        <time>2013-09-20T10:59:34Z</time>
      </trkpt>
      <trkpt lat="43.35133" lon="-0.56426">
        <ele>127.992554</ele>
        <time>2013-09-20T10:59:43Z</time>
      </trkpt>
      <trkpt lat="43.35153" lon="-0.56456">
        <ele>128.954102</ele>
        <time>2013-09-20T10:59:51Z</time>
      </trkpt>
      <trkpt lat="43.35161" lon="-0.56458">
        <ele>127.992554</ele>
        <time>2013-09-20T10:59:53Z</time>
      </trkpt>
      <trkpt lat="43.35254" lon="-0.5648">
        <ele>127.992554</ele>
        <time>2013-09-20T11:00:12Z</time>
      </trkpt>
      <trkpt lat="43.35342" lon="-0.56479">
        <ele>127.511963</ele>
        <time>2013-09-20T11:00:30Z</time>
      </trkpt>
      <trkpt lat="43.35433" lon="-0.56482">
        <ele>126.550659</ele>
        <time>2013-09-20T11:00:49Z</time>
      </trkpt>
      <trkpt lat="43.35452" lon="-0.56484">
        <ele>126.550659</ele>
        <time>2013-09-20T11:00:53Z</time>
      </trkpt>
      <trkpt lat="43.35466" lon="-0.56509">
        <ele>127.031372</ele>
        <time>2013-09-20T11:00:58Z</time>
      </trkpt>
      <trkpt lat="43.3549" lon="-0.56629">
        <ele>127.031372</ele>
        <time>2013-09-20T11:01:17Z</time>
      </trkpt>
      <trkpt lat="43.35501" lon="-0.56652">
        <ele>126.550659</ele>
        <time>2013-09-20T11:01:21Z</time>
      </trkpt>
      <trkpt lat="43.35508" lon="-0.56676">
        <ele>126.069946</ele>
        <time>2013-09-20T11:01:25Z</time>
      </trkpt>
      <trkpt lat="43.35521" lon="-0.56805">
        <ele>126.069946</ele>
        <time>2013-09-20T11:01:46Z</time>
      </trkpt>
      <trkpt lat="43.35525" lon="-0.5685">
        <ele>126.069946</ele>
        <time>2013-09-20T11:01:54Z</time>
      </trkpt>
      <trkpt lat="43.35539" lon="-0.56856">
        <ele>126.550659</ele>
        <time>2013-09-20T11:01:58Z</time>
      </trkpt>
      <trkpt lat="43.35547" lon="-0.56854">
        <ele>126.069946</ele>
        <time>2013-09-20T11:02:00Z</time>
      </trkpt>
      <trkpt lat="43.3562" lon="-0.56804">
        <ele>126.069946</ele>
        <time>2013-09-20T11:02:17Z</time>
      </trkpt>
      <trkpt lat="43.35709" lon="-0.56743">
        <ele>125.589355</ele>
        <time>2013-09-20T11:02:38Z</time>
      </trkpt>
      <trkpt lat="43.35717" lon="-0.5675">
        <ele>126.069946</ele>
        <time>2013-09-20T11:02:42Z</time>
      </trkpt>
      <trkpt lat="43.35717" lon="-0.56761">
        <ele>126.550659</ele>
        <time>2013-09-20T11:02:44Z</time>
      </trkpt>
      <trkpt lat="43.35695" lon="-0.56856">
        <ele>126.550659</ele>
        <time>2013-09-20T11:02:59Z</time>
      </trkpt>
      <trkpt lat="43.35672" lon="-0.56968">
        <ele>126.069946</ele>
        <time>2013-09-20T11:03:16Z</time>
      </trkpt>
      <trkpt lat="43.35664" lon="-0.57093">
        <ele>125.589355</ele>
        <time>2013-09-20T11:03:35Z</time>
      </trkpt>
      <trkpt lat="43.35693" lon="-0.57203">
        <ele>126.069946</ele>
        <time>2013-09-20T11:03:53Z</time>
      </trkpt>
      <trkpt lat="43.35737" lon="-0.57319">
        <ele>124.628052</ele>
        <time>2013-09-20T11:04:13Z</time>
      </trkpt>
      <trkpt lat="43.3576" lon="-0.5743">
        <ele>124.147339</ele>
        <time>2013-09-20T11:04:31Z</time>
      </trkpt>
      <trkpt lat="43.35782" lon="-0.57484">
        <ele>124.147339</ele>
        <time>2013-09-20T11:04:40Z</time>
      </trkpt>
      <trkpt lat="43.35795" lon="-0.5752">
        <ele>124.147339</ele>
        <time>2013-09-20T11:04:46Z</time>
      </trkpt>
      <trkpt lat="43.35804" lon="-0.57576">
        <ele>123.186157</ele>
        <time>2013-09-20T11:04:55Z</time>
      </trkpt>
      <trkpt lat="43.35807" lon="-0.5761">
        <ele>124.147339</ele>
        <time>2013-09-20T11:05:05Z</time>
      </trkpt>
      <trkpt lat="43.3581" lon="-0.57613">
        <ele>123.666748</ele>
        <time>2013-09-20T11:05:45Z</time>
      </trkpt>
      <trkpt lat="43.35809" lon="-0.57624">
        <ele>124.147339</ele>
        <time>2013-09-20T11:05:50Z</time>
      </trkpt>
      <trkpt lat="43.35786" lon="-0.57709">
        <ele>124.147339</ele>
        <time>2013-09-20T11:06:06Z</time>
      </trkpt>
      <trkpt lat="43.35739" lon="-0.57872">
        <ele>124.147339</ele>
        <time>2013-09-20T11:06:30Z</time>
      </trkpt>
      <trkpt lat="43.35684" lon="-0.58073">
        <ele>123.666748</ele>
        <time>2013-09-20T11:06:58Z</time>
      </trkpt>
      <trkpt lat="43.35657" lon="-0.5817">
        <ele>123.186157</ele>
        <time>2013-09-20T11:07:12Z</time>
      </trkpt>
      <trkpt lat="43.35654" lon="-0.58207">
        <ele>123.186157</ele>
        <time>2013-09-20T11:07:17Z</time>
      </trkpt>
      <trkpt lat="43.35664" lon="-0.58273">
        <ele>122.705444</ele>
        <time>2013-09-20T11:07:30Z</time>
      </trkpt>
      <trkpt lat="43.35661" lon="-0.58298">
        <ele>123.186157</ele>
        <time>2013-09-20T11:07:41Z</time>
      </trkpt>
      <trkpt lat="43.35649" lon="-0.58307">
        <ele>121.744141</ele>
        <time>2013-09-20T11:07:45Z</time>
      </trkpt>
      <trkpt lat="43.35629" lon="-0.58317">
        <ele>122.224731</ele>
        <time>2013-09-20T11:07:50Z</time>
      </trkpt>
      <trkpt lat="43.35622" lon="-0.58326">
        <ele>122.224731</ele>
        <time>2013-09-20T11:07:52Z</time>
      </trkpt>
      <trkpt lat="43.35614" lon="-0.58354">
        <ele>121.744141</ele>
        <time>2013-09-20T11:07:57Z</time>
      </trkpt>
      <trkpt lat="43.35607" lon="-0.58412">
        <ele>122.224731</ele>
        <time>2013-09-20T11:08:07Z</time>
      </trkpt>
      <trkpt lat="43.35606" lon="-0.58424">
        <ele>122.224731</ele>
        <time>2013-09-20T11:08:09Z</time>
      </trkpt>
      <trkpt lat="43.35603" lon="-0.58442">
        <ele>121.744141</ele>
        <time>2013-09-20T11:08:12Z</time>
      </trkpt>
      <trkpt lat="43.35592" lon="-0.58482">
        <ele>121.744141</ele>
        <time>2013-09-20T11:08:19Z</time>
      </trkpt>
      <trkpt lat="43.35585" lon="-0.58497">
        <ele>122.705444</ele>
        <time>2013-09-20T11:08:22Z</time>
      </trkpt>
      <trkpt lat="43.35577" lon="-0.58509">
        <ele>122.705444</ele>
        <time>2013-09-20T11:08:25Z</time>
      </trkpt>
      <trkpt lat="43.35559" lon="-0.58573">
        <ele>122.705444</ele>
        <time>2013-09-20T11:08:37Z</time>
      </trkpt>
      <trkpt lat="43.35567" lon="-0.58648">
        <ele>121.744141</ele>
        <time>2013-09-20T11:08:50Z</time>
      </trkpt>
      <trkpt lat="43.3557" lon="-0.58659">
        <ele>122.224731</ele>
        <time>2013-09-20T11:08:52Z</time>
      </trkpt>
      <trkpt lat="43.35576" lon="-0.58694">
        <ele>120.782837</ele>
        <time>2013-09-20T11:08:58Z</time>
      </trkpt>
      <trkpt lat="43.35581" lon="-0.58762">
        <ele>121.744141</ele>
        <time>2013-09-20T11:09:10Z</time>
      </trkpt>
      <trkpt lat="43.35581" lon="-0.58768">
        <ele>121.744141</ele>
        <time>2013-09-20T11:09:11Z</time>
      </trkpt>
      <trkpt lat="43.35586" lon="-0.58797">
        <ele>121.744141</ele>
        <time>2013-09-20T11:09:16Z</time>
      </trkpt>
      <trkpt lat="43.35603" lon="-0.58858">
        <ele>121.744141</ele>
        <time>2013-09-20T11:09:28Z</time>
      </trkpt>
      <trkpt lat="43.35607" lon="-0.58872">
        <ele>121.744141</ele>
        <time>2013-09-20T11:09:31Z</time>
      </trkpt>
      <trkpt lat="43.35643" lon="-0.58886">
        <ele>120.782837</ele>
        <time>2013-09-20T11:09:40Z</time>
      </trkpt>
      <trkpt lat="43.35655" lon="-0.58892">
        <ele>120.782837</ele>
        <time>2013-09-20T11:09:43Z</time>
      </trkpt>
      <trkpt lat="43.35712" lon="-0.58926">
        <ele>120.302124</ele>
        <time>2013-09-20T11:09:57Z</time>
      </trkpt>
      <trkpt lat="43.35746" lon="-0.58953">
        <ele>119.821411</ele>
        <time>2013-09-20T11:10:07Z</time>
      </trkpt>
      <trkpt lat="43.35747" lon="-0.58959">
        <ele>120.782837</ele>
        <time>2013-09-20T11:10:08Z</time>
      </trkpt>
      <trkpt lat="43.3575" lon="-0.58973">
        <ele>120.302124</ele>
        <time>2013-09-20T11:10:10Z</time>
      </trkpt>
      <trkpt lat="43.35754" lon="-0.59011">
        <ele>120.782837</ele>
        <time>2013-09-20T11:10:16Z</time>
      </trkpt>
      <trkpt lat="43.35755" lon="-0.59025">
        <ele>119.821411</ele>
        <time>2013-09-20T11:10:18Z</time>
      </trkpt>
      <trkpt lat="43.35756" lon="-0.59046">
        <ele>120.302124</ele>
        <time>2013-09-20T11:10:21Z</time>
      </trkpt>
      <trkpt lat="43.3576" lon="-0.59072">
        <ele>120.302124</ele>
        <time>2013-09-20T11:10:25Z</time>
      </trkpt>
      <trkpt lat="43.35767" lon="-0.59097">
        <ele>120.302124</ele>
        <time>2013-09-20T11:10:29Z</time>
      </trkpt>
      <trkpt lat="43.35776" lon="-0.59115">
        <ele>119.34082</ele>
        <time>2013-09-20T11:10:32Z</time>
      </trkpt>
      <trkpt lat="43.35801" lon="-0.59132">
        <ele>119.821411</ele>
        <time>2013-09-20T11:10:38Z</time>
      </trkpt>
      <trkpt lat="43.35808" lon="-0.59139">
        <ele>119.821411</ele>
        <time>2013-09-20T11:10:40Z</time>
      </trkpt>
      <trkpt lat="43.35815" lon="-0.5916">
        <ele>121.26355</ele>
        <time>2013-09-20T11:10:44Z</time>
      </trkpt>
      <trkpt lat="43.35802" lon="-0.59209">
        <ele>120.782837</ele>
        <time>2013-09-20T11:10:55Z</time>
      </trkpt>
      <trkpt lat="43.3578" lon="-0.59221">
        <ele>120.782837</ele>
        <time>2013-09-20T11:11:00Z</time>
      </trkpt>
      <trkpt lat="43.35733" lon="-0.59252">
        <ele>120.302124</ele>
        <time>2013-09-20T11:11:10Z</time>
      </trkpt>
      <trkpt lat="43.35694" lon="-0.59285">
        <ele>119.821411</ele>
        <time>2013-09-20T11:11:19Z</time>
      </trkpt>
      <trkpt lat="43.35626" lon="-0.59358">
        <ele>119.821411</ele>
        <time>2013-09-20T11:11:35Z</time>
      </trkpt>
      <trkpt lat="43.35608" lon="-0.59371">
        <ele>120.302124</ele>
        <time>2013-09-20T11:11:39Z</time>
      </trkpt>
      <trkpt lat="43.3559" lon="-0.59391">
        <ele>119.34082</ele>
        <time>2013-09-20T11:11:43Z</time>
      </trkpt>
      <trkpt lat="43.35553" lon="-0.59452">
        <ele>120.302124</ele>
        <time>2013-09-20T11:11:54Z</time>
      </trkpt>
      <trkpt lat="43.35517" lon="-0.59477">
        <ele>119.821411</ele>
        <time>2013-09-20T11:12:02Z</time>
      </trkpt>
      <trkpt lat="43.35492" lon="-0.59481">
        <ele>120.302124</ele>
        <time>2013-09-20T11:12:07Z</time>
      </trkpt>
      <trkpt lat="43.35459" lon="-0.59489">
        <ele>121.744141</ele>
        <time>2013-09-20T11:12:15Z</time>
      </trkpt>
      <trkpt lat="43.35425" lon="-0.59444">
        <ele>124.628052</ele>
        <time>2013-09-20T11:12:30Z</time>
      </trkpt>
      <trkpt lat="43.35416" lon="-0.59429">
        <ele>127.992554</ele>
        <time>2013-09-20T11:12:39Z</time>
      </trkpt>
      <trkpt lat="43.35407" lon="-0.59408">
        <ele>130.876709</ele>
        <time>2013-09-20T11:12:51Z</time>
      </trkpt>
      <trkpt lat="43.35389" lon="-0.59382">
        <ele>132.318604</ele>
        <time>2013-09-20T11:13:05Z</time>
      </trkpt>
      <trkpt lat="43.35364" lon="-0.59374">
        <ele>134.721924</ele>
        <time>2013-09-20T11:13:19Z</time>
      </trkpt>
      <trkpt lat="43.35322" lon="-0.59361">
        <ele>137.125244</ele>
        <time>2013-09-20T11:13:36Z</time>
      </trkpt>
      <trkpt lat="43.35286" lon="-0.59343">
        <ele>137.125244</ele>
        <time>2013-09-20T11:13:49Z</time>
      </trkpt>
      <trkpt lat="43.35253" lon="-0.59319">
        <ele>136.16394</ele>
        <time>2013-09-20T11:13:58Z</time>
      </trkpt>
      <trkpt lat="43.3523" lon="-0.59326">
        <ele>135.683105</ele>
        <time>2013-09-20T11:14:04Z</time>
      </trkpt>
      <trkpt lat="43.35189" lon="-0.59347">
        <ele>137.605835</ele>
        <time>2013-09-20T11:14:16Z</time>
      </trkpt>
      <trkpt lat="43.35142" lon="-0.59345">
        <ele>138.086548</ele>
        <time>2013-09-20T11:14:34Z</time>
      </trkpt>
      <trkpt lat="43.35142" lon="-0.59345">
        <ele>138.567261</ele>
        <time>2013-09-20T11:14:42Z</time>
      </trkpt>
      <trkpt lat="43.35109" lon="-0.59346">
        <ele>139.528442</ele>
        <time>2013-09-20T11:14:55Z</time>
      </trkpt>
      <trkpt lat="43.35044" lon="-0.59318">
        <ele>139.528442</ele>
        <time>2013-09-20T11:15:11Z</time>
      </trkpt>
      <trkpt lat="43.34961" lon="-0.59276">
        <ele>139.528442</ele>
        <time>2013-09-20T11:15:30Z</time>
      </trkpt>
      <trkpt lat="43.34878" lon="-0.59239">
        <ele>139.047852</ele>
        <time>2013-09-20T11:15:49Z</time>
      </trkpt>
      <trkpt lat="43.34851" lon="-0.59228">
        <ele>139.047852</ele>
        <time>2013-09-20T11:15:55Z</time>
      </trkpt>
      <trkpt lat="43.34838" lon="-0.59224">
        <ele>139.047852</ele>
        <time>2013-09-20T11:15:58Z</time>
      </trkpt>
      <trkpt lat="43.34819" lon="-0.59217">
        <ele>139.047852</ele>
        <time>2013-09-20T11:16:02Z</time>
      </trkpt>
      <trkpt lat="43.34788" lon="-0.59225">
        <ele>139.528442</ele>
        <time>2013-09-20T11:16:12Z</time>
      </trkpt>
      <trkpt lat="43.34768" lon="-0.59272">
        <ele>142.412476</ele>
        <time>2013-09-20T11:16:27Z</time>
      </trkpt>
      <trkpt lat="43.3472" lon="-0.59309">
        <ele>144.815796</ele>
        <time>2013-09-20T11:16:44Z</time>
      </trkpt>
      <trkpt lat="43.34707" lon="-0.5938">
        <ele>146.738403</ele>
        <time>2013-09-20T11:17:00Z</time>
      </trkpt>
      <trkpt lat="43.34705" lon="-0.59383">
        <ele>146.738403</ele>
        <time>2013-09-20T11:17:01Z</time>
      </trkpt>
      <trkpt lat="43.34691" lon="-0.59376">
        <ele>146.738403</ele>
        <time>2013-09-20T11:17:06Z</time>
      </trkpt>
      <trkpt lat="43.34622" lon="-0.59302">
        <ele>150.103027</ele>
        <time>2013-09-20T11:17:30Z</time>
      </trkpt>
      <trkpt lat="43.34568" lon="-0.59257">
        <ele>148.661011</ele>
        <time>2013-09-20T11:17:46Z</time>
      </trkpt>
      <trkpt lat="43.34481" lon="-0.59196">
        <ele>147.218994</ele>
        <time>2013-09-20T11:18:04Z</time>
      </trkpt>
      <trkpt lat="43.34428" lon="-0.59146">
        <ele>146.257813</ele>
        <time>2013-09-20T11:18:15Z</time>
      </trkpt>
      <trkpt lat="43.3441" lon="-0.59142">
        <ele>145.7771</ele>
        <time>2013-09-20T11:18:19Z</time>
      </trkpt>
      <trkpt lat="43.34394" lon="-0.59145">
        <ele>146.257813</ele>
        <time>2013-09-20T11:18:24Z</time>
      </trkpt>
      <trkpt lat="43.34316" lon="-0.59088">
        <ele>146.257813</ele>
        <time>2013-09-20T11:18:42Z</time>
      </trkpt>
      <trkpt lat="43.343" lon="-0.59082">
        <ele>146.257813</ele>
        <time>2013-09-20T11:18:45Z</time>
      </trkpt>
      <trkpt lat="43.34268" lon="-0.59078">
        <ele>146.257813</ele>
        <time>2013-09-20T11:18:51Z</time>
      </trkpt>
      <trkpt lat="43.34189" lon="-0.5907">
        <ele>147.218994</ele>
        <time>2013-09-20T11:19:07Z</time>
      </trkpt>
      <trkpt lat="43.34096" lon="-0.59062">
        <ele>147.218994</ele>
        <time>2013-09-20T11:19:25Z</time>
      </trkpt>
      <trkpt lat="43.33972" lon="-0.59049">
        <ele>147.218994</ele>
        <time>2013-09-20T11:19:48Z</time>
      </trkpt>
      <trkpt lat="43.33896" lon="-0.58986">
        <ele>145.7771</ele>
        <time>2013-09-20T11:20:03Z</time>
      </trkpt>
      <trkpt lat="43.33833" lon="-0.58908">
        <ele>145.296387</ele>
        <time>2013-09-20T11:20:17Z</time>
      </trkpt>
      <trkpt lat="43.33822" lon="-0.58914">
        <ele>145.296387</ele>
        <time>2013-09-20T11:20:21Z</time>
      </trkpt>
      <trkpt lat="43.33785" lon="-0.58968">
        <ele>147.699707</ele>
        <time>2013-09-20T11:20:36Z</time>
      </trkpt>
      <trkpt lat="43.33748" lon="-0.5897">
        <ele>150.103027</ele>
        <time>2013-09-20T11:20:49Z</time>
      </trkpt>
      <trkpt lat="43.33728" lon="-0.58955">
        <ele>152.986938</ele>
        <time>2013-09-20T11:21:00Z</time>
      </trkpt>
      <trkpt lat="43.33701" lon="-0.58941">
        <ele>155.870972</ele>
        <time>2013-09-20T11:21:13Z</time>
      </trkpt>
      <trkpt lat="43.33664" lon="-0.58921">
        <ele>158.27417</ele>
        <time>2013-09-20T11:21:30Z</time>
      </trkpt>
      <trkpt lat="43.33637" lon="-0.58913">
        <ele>161.638916</ele>
        <time>2013-09-20T11:21:42Z</time>
      </trkpt>
      <trkpt lat="43.33624" lon="-0.58912">
        <ele>162.600098</ele>
        <time>2013-09-20T11:21:48Z</time>
      </trkpt>
      <trkpt lat="43.33588" lon="-0.58878">
        <ele>165.003418</ele>
        <time>2013-09-20T11:22:06Z</time>
      </trkpt>
      <trkpt lat="43.33549" lon="-0.58841">
        <ele>164.042114</ele>
        <time>2013-09-20T11:22:19Z</time>
      </trkpt>
      <trkpt lat="43.33512" lon="-0.58804">
        <ele>161.158203</ele>
        <time>2013-09-20T11:22:26Z</time>
      </trkpt>
      <trkpt lat="43.33449" lon="-0.58742">
        <ele>158.27417</ele>
        <time>2013-09-20T11:22:35Z</time>
      </trkpt>
      <trkpt lat="43.33426" lon="-0.5872">
        <ele>157.312866</ele>
        <time>2013-09-20T11:22:39Z</time>
      </trkpt>
      <trkpt lat="43.33349" lon="-0.58644">
        <ele>155.390259</ele>
        <time>2013-09-20T11:22:55Z</time>
      </trkpt>
      <trkpt lat="43.33269" lon="-0.5858">
        <ele>151.544922</ele>
        <time>2013-09-20T11:23:11Z</time>
      </trkpt>
      <trkpt lat="43.33263" lon="-0.58574">
        <ele>151.544922</ele>
        <time>2013-09-20T11:23:12Z</time>
      </trkpt>
      <trkpt lat="43.33252" lon="-0.58561">
        <ele>148.661011</ele>
        <time>2013-09-20T11:23:14Z</time>
      </trkpt>
      <trkpt lat="43.33239" lon="-0.5855">
        <ele>147.218994</ele>
        <time>2013-09-20T11:23:16Z</time>
      </trkpt>
      <trkpt lat="43.33224" lon="-0.58539">
        <ele>146.738403</ele>
        <time>2013-09-20T11:23:18Z</time>
      </trkpt>
      <trkpt lat="43.33204" lon="-0.58516">
        <ele>146.257813</ele>
        <time>2013-09-20T11:23:21Z</time>
      </trkpt>
      <trkpt lat="43.33197" lon="-0.58502">
        <ele>146.738403</ele>
        <time>2013-09-20T11:23:23Z</time>
      </trkpt>
      <trkpt lat="43.33178" lon="-0.58483">
        <ele>150.583618</ele>
        <time>2013-09-20T11:23:31Z</time>
      </trkpt>
      <trkpt lat="43.33176" lon="-0.58481">
        <ele>150.583618</ele>
        <time>2013-09-20T11:23:32Z</time>
      </trkpt>
      <trkpt lat="43.33172" lon="-0.58476">
        <ele>152.506348</ele>
        <time>2013-09-20T11:23:35Z</time>
      </trkpt>
      <trkpt lat="43.33139" lon="-0.58452">
        <ele>154.428955</ele>
        <time>2013-09-20T11:23:49Z</time>
      </trkpt>
      <trkpt lat="43.33085" lon="-0.58439">
        <ele>154.428955</ele>
        <time>2013-09-20T11:24:05Z</time>
      </trkpt>
      <trkpt lat="43.33018" lon="-0.58408">
        <ele>154.428955</ele>
        <time>2013-09-20T11:24:23Z</time>
      </trkpt>
      <trkpt lat="43.32973" lon="-0.58383">
        <ele>155.870972</ele>
        <time>2013-09-20T11:24:37Z</time>
      </trkpt>
      <trkpt lat="43.32926" lon="-0.58373">
        <ele>158.754761</ele>
        <time>2013-09-20T11:24:52Z</time>
      </trkpt>
      <trkpt lat="43.32893" lon="-0.58344">
        <ele>162.119507</ele>
        <time>2013-09-20T11:25:07Z</time>
      </trkpt>
      <trkpt lat="43.32863" lon="-0.5832">
        <ele>163.080811</ele>
        <time>2013-09-20T11:25:22Z</time>
      </trkpt>
      <trkpt lat="43.32813" lon="-0.58309">
        <ele>163.080811</ele>
        <time>2013-09-20T11:25:36Z</time>
      </trkpt>
      <trkpt lat="43.32798" lon="-0.58307">
        <ele>162.600098</ele>
        <time>2013-09-20T11:25:39Z</time>
      </trkpt>
      <trkpt lat="43.32725" lon="-0.58268">
        <ele>159.716187</ele>
        <time>2013-09-20T11:25:53Z</time>
      </trkpt>
      <trkpt lat="43.32685" lon="-0.58231">
        <ele>159.235474</ele>
        <time>2013-09-20T11:26:02Z</time>
      </trkpt>
      <trkpt lat="43.32648" lon="-0.582">
        <ele>156.832153</ele>
        <time>2013-09-20T11:26:10Z</time>
      </trkpt>
      <trkpt lat="43.32644" lon="-0.58196">
        <ele>155.870972</ele>
        <time>2013-09-20T11:26:11Z</time>
      </trkpt>
      <trkpt lat="43.32629" lon="-0.58165">
        <ele>153.948364</ele>
        <time>2013-09-20T11:26:16Z</time>
      </trkpt>
      <trkpt lat="43.32624" lon="-0.58148">
        <ele>153.467651</ele>
        <time>2013-09-20T11:26:18Z</time>
      </trkpt>
      <trkpt lat="43.32607" lon="-0.58125">
        <ele>153.467651</ele>
        <time>2013-09-20T11:26:22Z</time>
      </trkpt>
      <trkpt lat="43.32595" lon="-0.58119">
        <ele>152.025757</ele>
        <time>2013-09-20T11:26:24Z</time>
      </trkpt>
      <trkpt lat="43.32571" lon="-0.58111">
        <ele>152.025757</ele>
        <time>2013-09-20T11:26:28Z</time>
      </trkpt>
      <trkpt lat="43.32542" lon="-0.58092">
        <ele>152.986938</ele>
        <time>2013-09-20T11:26:35Z</time>
      </trkpt>
      <trkpt lat="43.32532" lon="-0.58069">
        <ele>153.467651</ele>
        <time>2013-09-20T11:26:40Z</time>
      </trkpt>
      <trkpt lat="43.32534" lon="-0.58057">
        <ele>152.986938</ele>
        <time>2013-09-20T11:26:42Z</time>
      </trkpt>
      <trkpt lat="43.32515" lon="-0.58017">
        <ele>152.025757</ele>
        <time>2013-09-20T11:26:49Z</time>
      </trkpt>
      <trkpt lat="43.32472" lon="-0.57982">
        <ele>149.622314</ele>
        <time>2013-09-20T11:27:02Z</time>
      </trkpt>
      <trkpt lat="43.32458" lon="-0.57985">
        <ele>151.064209</ele>
        <time>2013-09-20T11:27:06Z</time>
      </trkpt>
      <trkpt lat="43.32424" lon="-0.57995">
        <ele>151.544922</ele>
        <time>2013-09-20T11:27:14Z</time>
      </trkpt>
      <trkpt lat="43.32411" lon="-0.57999">
        <ele>152.025757</ele>
        <time>2013-09-20T11:27:17Z</time>
      </trkpt>
      <trkpt lat="43.32397" lon="-0.58002">
        <ele>151.064209</ele>
        <time>2013-09-20T11:27:20Z</time>
      </trkpt>
      <trkpt lat="43.32373" lon="-0.58001">
        <ele>150.583618</ele>
        <time>2013-09-20T11:27:24Z</time>
      </trkpt>
      <trkpt lat="43.3236" lon="-0.58">
        <ele>149.622314</ele>
        <time>2013-09-20T11:27:26Z</time>
      </trkpt>
      <trkpt lat="43.32308" lon="-0.58003">
        <ele>151.064209</ele>
        <time>2013-09-20T11:27:37Z</time>
      </trkpt>
      <trkpt lat="43.32283" lon="-0.57996">
        <ele>152.986938</ele>
        <time>2013-09-20T11:27:45Z</time>
      </trkpt>
      <trkpt lat="43.3224" lon="-0.57989">
        <ele>154.909546</ele>
        <time>2013-09-20T11:27:59Z</time>
      </trkpt>
      <trkpt lat="43.32234" lon="-0.57999">
        <ele>155.870972</ele>
        <time>2013-09-20T11:28:03Z</time>
      </trkpt>
      <trkpt lat="43.3223" lon="-0.58046">
        <ele>158.754761</ele>
        <time>2013-09-20T11:28:18Z</time>
      </trkpt>
      <trkpt lat="43.32222" lon="-0.5809">
        <ele>160.196899</ele>
        <time>2013-09-20T11:28:33Z</time>
      </trkpt>
      <trkpt lat="43.32213" lon="-0.581">
        <ele>162.119507</ele>
        <time>2013-09-20T11:28:38Z</time>
      </trkpt>
      <trkpt lat="43.32192" lon="-0.5816">
        <ele>163.561523</ele>
        <time>2013-09-20T11:28:56Z</time>
      </trkpt>
      <trkpt lat="43.32156" lon="-0.58195">
        <ele>166.445313</ele>
        <time>2013-09-20T11:29:13Z</time>
      </trkpt>
      <trkpt lat="43.32141" lon="-0.58212">
        <ele>169.329468</ele>
        <time>2013-09-20T11:29:21Z</time>
      </trkpt>
      <trkpt lat="43.32139" lon="-0.58214">
        <ele>168.848755</ele>
        <time>2013-09-20T11:29:22Z</time>
      </trkpt>
      <trkpt lat="43.32133" lon="-0.58222">
        <ele>169.810059</ele>
        <time>2013-09-20T11:29:26Z</time>
      </trkpt>
      <trkpt lat="43.32102" lon="-0.5821">
        <ele>171.252075</ele>
        <time>2013-09-20T11:29:41Z</time>
      </trkpt>
      <trkpt lat="43.32045" lon="-0.58187">
        <ele>167.887329</ele>
        <time>2013-09-20T11:29:54Z</time>
      </trkpt>
      <trkpt lat="43.32035" lon="-0.58181">
        <ele>167.887329</ele>
        <time>2013-09-20T11:29:56Z</time>
      </trkpt>
      <trkpt lat="43.32002" lon="-0.58165">
        <ele>168.848755</ele>
        <time>2013-09-20T11:30:04Z</time>
      </trkpt>
      <trkpt lat="43.31962" lon="-0.58114">
        <ele>168.368042</ele>
        <time>2013-09-20T11:30:18Z</time>
      </trkpt>
      <trkpt lat="43.3195" lon="-0.58121">
        <ele>170.290649</ele>
        <time>2013-09-20T11:30:24Z</time>
      </trkpt>
      <trkpt lat="43.31914" lon="-0.58162">
        <ele>173.655273</ele>
        <time>2013-09-20T11:30:44Z</time>
      </trkpt>
      <trkpt lat="43.31895" lon="-0.58193">
        <ele>177.02002</ele>
        <time>2013-09-20T11:30:58Z</time>
      </trkpt>
      <trkpt lat="43.31886" lon="-0.5823">
        <ele>179.903809</ele>
        <time>2013-09-20T11:31:12Z</time>
      </trkpt>
      <trkpt lat="43.31861" lon="-0.58285">
        <ele>177.981201</ele>
        <time>2013-09-20T11:31:27Z</time>
      </trkpt>
      <trkpt lat="43.31807" lon="-0.58391">
        <ele>173.174683</ele>
        <time>2013-09-20T11:31:43Z</time>
      </trkpt>
      <trkpt lat="43.31801" lon="-0.584">
        <ele>173.174683</ele>
        <time>2013-09-20T11:31:44Z</time>
      </trkpt>
      <trkpt lat="43.31774" lon="-0.58448">
        <ele>171.732666</ele>
        <time>2013-09-20T11:31:49Z</time>
      </trkpt>
      <trkpt lat="43.31734" lon="-0.58489">
        <ele>171.732666</ele>
        <time>2013-09-20T11:31:58Z</time>
      </trkpt>
      <trkpt lat="43.3171" lon="-0.58516">
        <ele>175.577881</ele>
        <time>2013-09-20T11:32:09Z</time>
      </trkpt>
      <trkpt lat="43.31689" lon="-0.58524">
        <ele>178.461914</ele>
        <time>2013-09-20T11:32:22Z</time>
      </trkpt>
      <trkpt lat="43.31673" lon="-0.58525">
        <ele>182.307129</ele>
        <time>2013-09-20T11:32:33Z</time>
      </trkpt>
      <trkpt lat="43.31657" lon="-0.58526">
        <ele>185.191162</ele>
        <time>2013-09-20T11:32:44Z</time>
      </trkpt>
      <trkpt lat="43.3164" lon="-0.58528">
        <ele>188.555786</ele>
        <time>2013-09-20T11:32:57Z</time>
      </trkpt>
      <trkpt lat="43.31631" lon="-0.58529">
        <ele>190.478394</ele>
        <time>2013-09-20T11:33:04Z</time>
      </trkpt>
      <trkpt lat="43.31617" lon="-0.58532">
        <ele>194.32373</ele>
        <time>2013-09-20T11:33:16Z</time>
      </trkpt>
    </trkseg>
  </trk>
  <trk>
    <name><![CDATA[ACTIVE LOG 008]]></name>
    <trkseg>
      <trkpt lat="43.31628" lon="-0.58529">
        <ele>206.340088</ele>
        <time>2013-09-20T11:42:28Z</time>
      </trkpt>
      <trkpt lat="43.31628" lon="-0.58529">
        <ele>202.494873</ele>
        <time>2013-09-20T11:42:29Z</time>
      </trkpt>
    </trkseg>
  </trk>
  <trk>
    <name><![CDATA[ACTIVE LOG 009]]></name>
    <trkseg>
      <trkpt lat="43.31586" lon="-0.58628">
        <ele>202.494873</ele>
        <time>2013-09-20T11:42:45Z</time>
      </trkpt>
      <trkpt lat="43.31581" lon="-0.5863">
        <ele>202.014282</ele>
        <time>2013-09-20T11:44:52Z</time>
      </trkpt>
      <trkpt lat="43.3158" lon="-0.58629">
        <ele>202.014282</ele>
        <time>2013-09-20T11:46:32Z</time>
      </trkpt>
      <trkpt lat="43.31582" lon="-0.58628">
        <ele>201.533569</ele>
        <time>2013-09-20T11:46:54Z</time>
      </trkpt>
    </trkseg>
  </trk>
</gpx>